<?xml version="1.0" encoding="UTF-8" standalone="no" ?>
<gpx xmlns="http://www.topografix.com/GPX/1/1" xmlns:xsi="http://www.w3.org/2001/XMLSchema-instance" xsi:schemaLocation="http://www.topografix.com/GPX/1/1 http://www.topografix.com/GPX/1/1/gpx.xsd" version="1.1" creator="VisuGPX - https://www.visugpx.com">
  <metadata>
    <name>vttcouloir</name>
    <desc><![CDATA[test vtt couloir naka ]]></desc>
  </metadata>
  <trk>
    <name><![CDATA[2016-01-15 15:59:42]]></name>
    <trkseg>
      <trkpt lat="44.52012" lon="-1.24425">
        <ele>-50.63</ele>
        <time>2016-01-15T12:53:28Z</time>
      </trkpt>
      <trkpt lat="44.52009" lon="-1.24422">
        <ele>-50.52</ele>
        <time>2016-01-15T12:53:30Z</time>
      </trkpt>
      <trkpt lat="44.51984" lon="-1.24412">
        <ele>-49.89</ele>
        <time>2016-01-15T12:53:39Z</time>
      </trkpt>
      <trkpt lat="44.51921" lon="-1.24371">
        <ele>-50.14</ele>
        <time>2016-01-15T12:53:53Z</time>
      </trkpt>
      <trkpt lat="44.51848" lon="-1.24317">
        <ele>-49.64</ele>
        <time>2016-01-15T12:54:06Z</time>
      </trkpt>
      <trkpt lat="44.51842" lon="-1.24313">
        <ele>-49.5</ele>
        <time>2016-01-15T12:54:07Z</time>
      </trkpt>
      <trkpt lat="44.51813" lon="-1.2424">
        <ele>-48.22</ele>
        <time>2016-01-15T12:54:17Z</time>
      </trkpt>
      <trkpt lat="44.51809" lon="-1.24183">
        <ele>-48.31</ele>
        <time>2016-01-15T12:54:24Z</time>
      </trkpt>
      <trkpt lat="44.51803" lon="-1.24137">
        <ele>-48.44</ele>
        <time>2016-01-15T12:54:29Z</time>
      </trkpt>
      <trkpt lat="44.518" lon="-1.24119">
        <ele>-48.46</ele>
        <time>2016-01-15T12:54:31Z</time>
      </trkpt>
      <trkpt lat="44.51797" lon="-1.24094">
        <ele>-48.05</ele>
        <time>2016-01-15T12:54:34Z</time>
      </trkpt>
      <trkpt lat="44.5179" lon="-1.24039">
        <ele>-46.09</ele>
        <time>2016-01-15T12:54:41Z</time>
      </trkpt>
      <trkpt lat="44.51789" lon="-1.24025">
        <ele>-45.24</ele>
        <time>2016-01-15T12:54:43Z</time>
      </trkpt>
      <trkpt lat="44.51776" lon="-1.23914">
        <ele>-42.82</ele>
        <time>2016-01-15T12:54:57Z</time>
      </trkpt>
      <trkpt lat="44.51764" lon="-1.23789">
        <ele>-45.89</ele>
        <time>2016-01-15T12:55:09Z</time>
      </trkpt>
      <trkpt lat="44.51753" lon="-1.23657">
        <ele>-46.41</ele>
        <time>2016-01-15T12:55:21Z</time>
      </trkpt>
      <trkpt lat="44.51739" lon="-1.23582">
        <ele>-46.21</ele>
        <time>2016-01-15T12:55:30Z</time>
      </trkpt>
      <trkpt lat="44.51738" lon="-1.23561">
        <ele>-45.42</ele>
        <time>2016-01-15T12:55:33Z</time>
      </trkpt>
      <trkpt lat="44.5173" lon="-1.23537">
        <ele>-45.95</ele>
        <time>2016-01-15T12:55:36Z</time>
      </trkpt>
      <trkpt lat="44.51719" lon="-1.23515">
        <ele>-46.02</ele>
        <time>2016-01-15T12:55:39Z</time>
      </trkpt>
      <trkpt lat="44.51686" lon="-1.23486">
        <ele>-45.6</ele>
        <time>2016-01-15T12:55:45Z</time>
      </trkpt>
      <trkpt lat="44.516" lon="-1.23489">
        <ele>-45.39</ele>
        <time>2016-01-15T12:55:58Z</time>
      </trkpt>
      <trkpt lat="44.51517" lon="-1.23508">
        <ele>-44.55</ele>
        <time>2016-01-15T12:56:10Z</time>
      </trkpt>
      <trkpt lat="44.51511" lon="-1.23508">
        <ele>-44.55</ele>
        <time>2016-01-15T12:56:11Z</time>
      </trkpt>
      <trkpt lat="44.51453" lon="-1.23485">
        <ele>-43.83</ele>
        <time>2016-01-15T12:56:20Z</time>
      </trkpt>
      <trkpt lat="44.51399" lon="-1.23424">
        <ele>-44.49</ele>
        <time>2016-01-15T12:56:30Z</time>
      </trkpt>
      <trkpt lat="44.51388" lon="-1.23391">
        <ele>-44.68</ele>
        <time>2016-01-15T12:56:34Z</time>
      </trkpt>
      <trkpt lat="44.51384" lon="-1.23314">
        <ele>-44.27</ele>
        <time>2016-01-15T12:56:43Z</time>
      </trkpt>
      <trkpt lat="44.51387" lon="-1.23273">
        <ele>-44.97</ele>
        <time>2016-01-15T12:56:48Z</time>
      </trkpt>
      <trkpt lat="44.51402" lon="-1.23223">
        <ele>-43.95</ele>
        <time>2016-01-15T12:56:54Z</time>
      </trkpt>
      <trkpt lat="44.51421" lon="-1.23157">
        <ele>-42.45</ele>
        <time>2016-01-15T12:57:02Z</time>
      </trkpt>
      <trkpt lat="44.51446" lon="-1.23091">
        <ele>-42.23</ele>
        <time>2016-01-15T12:57:10Z</time>
      </trkpt>
      <trkpt lat="44.51465" lon="-1.23052">
        <ele>-42.28</ele>
        <time>2016-01-15T12:57:15Z</time>
      </trkpt>
      <trkpt lat="44.51489" lon="-1.23026">
        <ele>-41.81</ele>
        <time>2016-01-15T12:57:20Z</time>
      </trkpt>
      <trkpt lat="44.51509" lon="-1.23014">
        <ele>-41.14</ele>
        <time>2016-01-15T12:57:24Z</time>
      </trkpt>
      <trkpt lat="44.51529" lon="-1.23006">
        <ele>-40.01</ele>
        <time>2016-01-15T12:57:28Z</time>
      </trkpt>
      <trkpt lat="44.51539" lon="-1.23003">
        <ele>-39.79</ele>
        <time>2016-01-15T12:57:30Z</time>
      </trkpt>
      <trkpt lat="44.51548" lon="-1.22998">
        <ele>-39.7</ele>
        <time>2016-01-15T12:57:32Z</time>
      </trkpt>
      <trkpt lat="44.51585" lon="-1.22976">
        <ele>-40.18</ele>
        <time>2016-01-15T12:57:39Z</time>
      </trkpt>
      <trkpt lat="44.51602" lon="-1.22949">
        <ele>-40.85</ele>
        <time>2016-01-15T12:57:43Z</time>
      </trkpt>
      <trkpt lat="44.5161" lon="-1.22925">
        <ele>-40.82</ele>
        <time>2016-01-15T12:57:47Z</time>
      </trkpt>
      <trkpt lat="44.51616" lon="-1.22893">
        <ele>-39.96</ele>
        <time>2016-01-15T12:57:52Z</time>
      </trkpt>
      <trkpt lat="44.51612" lon="-1.22865">
        <ele>-39.47</ele>
        <time>2016-01-15T12:57:56Z</time>
      </trkpt>
      <trkpt lat="44.51604" lon="-1.22838">
        <ele>-38.92</ele>
        <time>2016-01-15T12:58:00Z</time>
      </trkpt>
      <trkpt lat="44.51624" lon="-1.22802">
        <ele>-37.94</ele>
        <time>2016-01-15T12:58:07Z</time>
      </trkpt>
      <trkpt lat="44.51645" lon="-1.228">
        <ele>-37.13</ele>
        <time>2016-01-15T12:58:11Z</time>
      </trkpt>
      <trkpt lat="44.5166" lon="-1.22803">
        <ele>-36.52</ele>
        <time>2016-01-15T12:58:14Z</time>
      </trkpt>
      <trkpt lat="44.5168" lon="-1.22808">
        <ele>-35.02</ele>
        <time>2016-01-15T12:58:18Z</time>
      </trkpt>
      <trkpt lat="44.517" lon="-1.22807">
        <ele>-33.78</ele>
        <time>2016-01-15T12:58:22Z</time>
      </trkpt>
      <trkpt lat="44.51714" lon="-1.22803">
        <ele>-33.09</ele>
        <time>2016-01-15T12:58:25Z</time>
      </trkpt>
      <trkpt lat="44.51731" lon="-1.2279">
        <ele>-31.99</ele>
        <time>2016-01-15T12:58:29Z</time>
      </trkpt>
      <trkpt lat="44.51778" lon="-1.22729">
        <ele>-28.5</ele>
        <time>2016-01-15T12:58:43Z</time>
      </trkpt>
      <trkpt lat="44.51811" lon="-1.22681">
        <ele>-25.48</ele>
        <time>2016-01-15T12:58:54Z</time>
      </trkpt>
      <trkpt lat="44.51819" lon="-1.22665">
        <ele>-24.48</ele>
        <time>2016-01-15T12:58:57Z</time>
      </trkpt>
      <trkpt lat="44.51829" lon="-1.22644">
        <ele>-23.48</ele>
        <time>2016-01-15T12:59:01Z</time>
      </trkpt>
      <trkpt lat="44.51843" lon="-1.22619">
        <ele>-22.04</ele>
        <time>2016-01-15T12:59:06Z</time>
      </trkpt>
      <trkpt lat="44.51867" lon="-1.22577">
        <ele>-19.94</ele>
        <time>2016-01-15T12:59:15Z</time>
      </trkpt>
      <trkpt lat="44.51903" lon="-1.22526">
        <ele>-16.4</ele>
        <time>2016-01-15T12:59:28Z</time>
      </trkpt>
      <trkpt lat="44.51924" lon="-1.22471">
        <ele>-13.17</ele>
        <time>2016-01-15T12:59:39Z</time>
      </trkpt>
      <trkpt lat="44.51935" lon="-1.22421">
        <ele>-10.99</ele>
        <time>2016-01-15T12:59:49Z</time>
      </trkpt>
      <trkpt lat="44.51947" lon="-1.22406">
        <ele>-9.62</ele>
        <time>2016-01-15T12:59:53Z</time>
      </trkpt>
      <trkpt lat="44.51982" lon="-1.22386">
        <ele>-7.21</ele>
        <time>2016-01-15T13:00:02Z</time>
      </trkpt>
      <trkpt lat="44.51993" lon="-1.22378">
        <ele>-6.48</ele>
        <time>2016-01-15T13:00:05Z</time>
      </trkpt>
      <trkpt lat="44.52018" lon="-1.22345">
        <ele>-4.34</ele>
        <time>2016-01-15T13:00:13Z</time>
      </trkpt>
      <trkpt lat="44.52031" lon="-1.22323">
        <ele>-3.01</ele>
        <time>2016-01-15T13:00:18Z</time>
      </trkpt>
      <trkpt lat="44.52066" lon="-1.2227">
        <ele>0.44</ele>
        <time>2016-01-15T13:00:30Z</time>
      </trkpt>
      <trkpt lat="44.52071" lon="-1.2226">
        <ele>1.1</ele>
        <time>2016-01-15T13:00:32Z</time>
      </trkpt>
      <trkpt lat="44.52092" lon="-1.22203">
        <ele>4.08</ele>
        <time>2016-01-15T13:00:43Z</time>
      </trkpt>
      <trkpt lat="44.52125" lon="-1.22152">
        <ele>6.36</ele>
        <time>2016-01-15T13:00:56Z</time>
      </trkpt>
      <trkpt lat="44.52163" lon="-1.22118">
        <ele>6.73</ele>
        <time>2016-01-15T13:01:09Z</time>
      </trkpt>
      <trkpt lat="44.52206" lon="-1.22095">
        <ele>7.71</ele>
        <time>2016-01-15T13:01:22Z</time>
      </trkpt>
      <trkpt lat="44.52237" lon="-1.22078">
        <ele>7.41</ele>
        <time>2016-01-15T13:01:32Z</time>
      </trkpt>
      <trkpt lat="44.52258" lon="-1.22061">
        <ele>7.71</ele>
        <time>2016-01-15T13:01:46Z</time>
      </trkpt>
      <trkpt lat="44.52264" lon="-1.22055">
        <ele>7.93</ele>
        <time>2016-01-15T13:01:50Z</time>
      </trkpt>
      <trkpt lat="44.52263" lon="-1.22063">
        <ele>7.79</ele>
        <time>2016-01-15T13:01:56Z</time>
      </trkpt>
      <trkpt lat="44.52272" lon="-1.22068">
        <ele>9.77</ele>
        <time>2016-01-15T13:02:03Z</time>
      </trkpt>
      <trkpt lat="44.52278" lon="-1.22077">
        <ele>10.12</ele>
        <time>2016-01-15T13:02:10Z</time>
      </trkpt>
      <trkpt lat="44.52285" lon="-1.22077">
        <ele>10.01</ele>
        <time>2016-01-15T13:02:16Z</time>
      </trkpt>
      <trkpt lat="44.52318" lon="-1.22057">
        <ele>9.69</ele>
        <time>2016-01-15T13:02:27Z</time>
      </trkpt>
      <trkpt lat="44.52356" lon="-1.22051">
        <ele>8.38</ele>
        <time>2016-01-15T13:02:40Z</time>
      </trkpt>
      <trkpt lat="44.52388" lon="-1.22056">
        <ele>8.85</ele>
        <time>2016-01-15T13:02:53Z</time>
      </trkpt>
      <trkpt lat="44.52409" lon="-1.22092">
        <ele>9.66</ele>
        <time>2016-01-15T13:03:05Z</time>
      </trkpt>
      <trkpt lat="44.52425" lon="-1.2217">
        <ele>9.02</ele>
        <time>2016-01-15T13:03:21Z</time>
      </trkpt>
      <trkpt lat="44.52432" lon="-1.22216">
        <ele>5.01</ele>
        <time>2016-01-15T13:03:26Z</time>
      </trkpt>
      <trkpt lat="44.52437" lon="-1.22261">
        <ele>2.25</ele>
        <time>2016-01-15T13:03:30Z</time>
      </trkpt>
      <trkpt lat="44.52434" lon="-1.22302">
        <ele>-0.6</ele>
        <time>2016-01-15T13:03:34Z</time>
      </trkpt>
      <trkpt lat="44.5244" lon="-1.22353">
        <ele>-5.45</ele>
        <time>2016-01-15T13:03:39Z</time>
      </trkpt>
      <trkpt lat="44.52441" lon="-1.22362">
        <ele>-6.89</ele>
        <time>2016-01-15T13:03:40Z</time>
      </trkpt>
      <trkpt lat="44.52456" lon="-1.22398">
        <ele>-11.11</ele>
        <time>2016-01-15T13:03:44Z</time>
      </trkpt>
      <trkpt lat="44.52464" lon="-1.22412">
        <ele>-13.92</ele>
        <time>2016-01-15T13:03:46Z</time>
      </trkpt>
      <trkpt lat="44.52473" lon="-1.22447">
        <ele>-18.97</ele>
        <time>2016-01-15T13:03:50Z</time>
      </trkpt>
      <trkpt lat="44.52474" lon="-1.22456">
        <ele>-19.93</ele>
        <time>2016-01-15T13:03:51Z</time>
      </trkpt>
      <trkpt lat="44.52474" lon="-1.22487">
        <ele>-24.77</ele>
        <time>2016-01-15T13:03:54Z</time>
      </trkpt>
      <trkpt lat="44.5247" lon="-1.22519">
        <ele>-29.11</ele>
        <time>2016-01-15T13:03:57Z</time>
      </trkpt>
      <trkpt lat="44.52471" lon="-1.22539">
        <ele>-31.63</ele>
        <time>2016-01-15T13:03:59Z</time>
      </trkpt>
      <trkpt lat="44.52478" lon="-1.22579">
        <ele>-36.12</ele>
        <time>2016-01-15T13:04:03Z</time>
      </trkpt>
      <trkpt lat="44.52478" lon="-1.22613">
        <ele>-38.86</ele>
        <time>2016-01-15T13:04:07Z</time>
      </trkpt>
      <trkpt lat="44.52475" lon="-1.22644">
        <ele>-40.59</ele>
        <time>2016-01-15T13:04:11Z</time>
      </trkpt>
      <trkpt lat="44.52477" lon="-1.22668">
        <ele>-41.4</ele>
        <time>2016-01-15T13:04:18Z</time>
      </trkpt>
      <trkpt lat="44.52484" lon="-1.22674">
        <ele>-41.17</ele>
        <time>2016-01-15T13:04:35Z</time>
      </trkpt>
      <trkpt lat="44.52515" lon="-1.22682">
        <ele>-41.29</ele>
        <time>2016-01-15T13:04:44Z</time>
      </trkpt>
      <trkpt lat="44.52548" lon="-1.22689">
        <ele>-41.17</ele>
        <time>2016-01-15T13:04:52Z</time>
      </trkpt>
      <trkpt lat="44.52634" lon="-1.22706">
        <ele>-40.82</ele>
        <time>2016-01-15T13:05:08Z</time>
      </trkpt>
      <trkpt lat="44.52705" lon="-1.22718">
        <ele>-38.88</ele>
        <time>2016-01-15T13:05:20Z</time>
      </trkpt>
      <trkpt lat="44.52777" lon="-1.2274">
        <ele>-36.31</ele>
        <time>2016-01-15T13:05:33Z</time>
      </trkpt>
      <trkpt lat="44.52782" lon="-1.22741">
        <ele>-36.55</ele>
        <time>2016-01-15T13:05:34Z</time>
      </trkpt>
      <trkpt lat="44.52793" lon="-1.22745">
        <ele>-36.76</ele>
        <time>2016-01-15T13:05:36Z</time>
      </trkpt>
      <trkpt lat="44.5281" lon="-1.22749">
        <ele>-36.28</ele>
        <time>2016-01-15T13:05:39Z</time>
      </trkpt>
      <trkpt lat="44.52884" lon="-1.22754">
        <ele>-36.89</ele>
        <time>2016-01-15T13:05:52Z</time>
      </trkpt>
      <trkpt lat="44.5289" lon="-1.22753">
        <ele>-37.06</ele>
        <time>2016-01-15T13:05:53Z</time>
      </trkpt>
      <trkpt lat="44.52962" lon="-1.22732">
        <ele>-38.01</ele>
        <time>2016-01-15T13:06:04Z</time>
      </trkpt>
      <trkpt lat="44.53058" lon="-1.22708">
        <ele>-37.28</ele>
        <time>2016-01-15T13:06:19Z</time>
      </trkpt>
      <trkpt lat="44.53126" lon="-1.22691">
        <ele>-37.49</ele>
        <time>2016-01-15T13:06:30Z</time>
      </trkpt>
      <trkpt lat="44.53182" lon="-1.22679">
        <ele>-34.2</ele>
        <time>2016-01-15T13:06:42Z</time>
      </trkpt>
      <trkpt lat="44.53228" lon="-1.22671">
        <ele>-31.59</ele>
        <time>2016-01-15T13:06:55Z</time>
      </trkpt>
      <trkpt lat="44.53232" lon="-1.22672">
        <ele>-31.69</ele>
        <time>2016-01-15T13:06:56Z</time>
      </trkpt>
      <trkpt lat="44.53254" lon="-1.2268">
        <ele>-31.32</ele>
        <time>2016-01-15T13:07:01Z</time>
      </trkpt>
      <trkpt lat="44.53276" lon="-1.22678">
        <ele>-30.8</ele>
        <time>2016-01-15T13:07:05Z</time>
      </trkpt>
      <trkpt lat="44.53307" lon="-1.22713">
        <ele>-30.96</ele>
        <time>2016-01-15T13:07:14Z</time>
      </trkpt>
      <trkpt lat="44.53309" lon="-1.2278">
        <ele>-35.04</ele>
        <time>2016-01-15T13:07:21Z</time>
      </trkpt>
      <trkpt lat="44.5331" lon="-1.22823">
        <ele>-38.22</ele>
        <time>2016-01-15T13:07:25Z</time>
      </trkpt>
      <trkpt lat="44.53309" lon="-1.22845">
        <ele>-39.22</ele>
        <time>2016-01-15T13:07:27Z</time>
      </trkpt>
      <trkpt lat="44.533" lon="-1.22935">
        <ele>-38.27</ele>
        <time>2016-01-15T13:07:37Z</time>
      </trkpt>
      <trkpt lat="44.53298" lon="-1.23006">
        <ele>-41.94</ele>
        <time>2016-01-15T13:07:44Z</time>
      </trkpt>
      <trkpt lat="44.53299" lon="-1.23023">
        <ele>-42.66</ele>
        <time>2016-01-15T13:07:46Z</time>
      </trkpt>
      <trkpt lat="44.53299" lon="-1.23031">
        <ele>-42.56</ele>
        <time>2016-01-15T13:07:47Z</time>
      </trkpt>
      <trkpt lat="44.53315" lon="-1.23035">
        <ele>-42.56</ele>
        <time>2016-01-15T13:07:52Z</time>
      </trkpt>
      <trkpt lat="44.53327" lon="-1.23023">
        <ele>-42.33</ele>
        <time>2016-01-15T13:07:55Z</time>
      </trkpt>
      <trkpt lat="44.53351" lon="-1.23017">
        <ele>-42.81</ele>
        <time>2016-01-15T13:08:00Z</time>
      </trkpt>
      <trkpt lat="44.53418" lon="-1.23048">
        <ele>-42.77</ele>
        <time>2016-01-15T13:08:13Z</time>
      </trkpt>
      <trkpt lat="44.53486" lon="-1.23094">
        <ele>-43.24</ele>
        <time>2016-01-15T13:08:27Z</time>
      </trkpt>
      <trkpt lat="44.5349" lon="-1.23097">
        <ele>-43.5</ele>
        <time>2016-01-15T13:08:28Z</time>
      </trkpt>
      <trkpt lat="44.53525" lon="-1.23092">
        <ele>-42.97</ele>
        <time>2016-01-15T13:08:34Z</time>
      </trkpt>
      <trkpt lat="44.53536" lon="-1.23087">
        <ele>-43.03</ele>
        <time>2016-01-15T13:08:36Z</time>
      </trkpt>
      <trkpt lat="44.53556" lon="-1.23089">
        <ele>-42.45</ele>
        <time>2016-01-15T13:08:40Z</time>
      </trkpt>
      <trkpt lat="44.53622" lon="-1.23114">
        <ele>-43.29</ele>
        <time>2016-01-15T13:08:53Z</time>
      </trkpt>
      <trkpt lat="44.53628" lon="-1.23154">
        <ele>-43.17</ele>
        <time>2016-01-15T13:09:01Z</time>
      </trkpt>
      <trkpt lat="44.53634" lon="-1.23178">
        <ele>-43.35</ele>
        <time>2016-01-15T13:09:06Z</time>
      </trkpt>
      <trkpt lat="44.53641" lon="-1.23191">
        <ele>-43.57</ele>
        <time>2016-01-15T13:09:09Z</time>
      </trkpt>
      <trkpt lat="44.53686" lon="-1.23237">
        <ele>-43.57</ele>
        <time>2016-01-15T13:09:23Z</time>
      </trkpt>
      <trkpt lat="44.53715" lon="-1.23237">
        <ele>-43.44</ele>
        <time>2016-01-15T13:09:29Z</time>
      </trkpt>
      <trkpt lat="44.53784" lon="-1.23207">
        <ele>-44.19</ele>
        <time>2016-01-15T13:09:40Z</time>
      </trkpt>
      <trkpt lat="44.53805" lon="-1.23218">
        <ele>-43.77</ele>
        <time>2016-01-15T13:09:45Z</time>
      </trkpt>
      <trkpt lat="44.5382" lon="-1.23234">
        <ele>-42.93</ele>
        <time>2016-01-15T13:09:49Z</time>
      </trkpt>
      <trkpt lat="44.53832" lon="-1.23243">
        <ele>-42.87</ele>
        <time>2016-01-15T13:09:52Z</time>
      </trkpt>
      <trkpt lat="44.53851" lon="-1.2326">
        <ele>-43.29</ele>
        <time>2016-01-15T13:09:56Z</time>
      </trkpt>
      <trkpt lat="44.5389" lon="-1.23298">
        <ele>-44</ele>
        <time>2016-01-15T13:10:04Z</time>
      </trkpt>
      <trkpt lat="44.53938" lon="-1.23311">
        <ele>-43.43</ele>
        <time>2016-01-15T13:10:13Z</time>
      </trkpt>
      <trkpt lat="44.53948" lon="-1.23311">
        <ele>-43.29</ele>
        <time>2016-01-15T13:10:15Z</time>
      </trkpt>
      <trkpt lat="44.53977" lon="-1.23309">
        <ele>-43.26</ele>
        <time>2016-01-15T13:10:21Z</time>
      </trkpt>
      <trkpt lat="44.54005" lon="-1.23316">
        <ele>-43.25</ele>
        <time>2016-01-15T13:10:27Z</time>
      </trkpt>
      <trkpt lat="44.54014" lon="-1.23321">
        <ele>-42.91</ele>
        <time>2016-01-15T13:10:29Z</time>
      </trkpt>
      <trkpt lat="44.54036" lon="-1.23327">
        <ele>-42.76</ele>
        <time>2016-01-15T13:10:34Z</time>
      </trkpt>
      <trkpt lat="44.54054" lon="-1.23328">
        <ele>-42.95</ele>
        <time>2016-01-15T13:10:37Z</time>
      </trkpt>
      <trkpt lat="44.54107" lon="-1.23338">
        <ele>-43.19</ele>
        <time>2016-01-15T13:10:46Z</time>
      </trkpt>
      <trkpt lat="44.54141" lon="-1.23358">
        <ele>-43.7</ele>
        <time>2016-01-15T13:10:55Z</time>
      </trkpt>
      <trkpt lat="44.54159" lon="-1.23358">
        <ele>-43.37</ele>
        <time>2016-01-15T13:11:00Z</time>
      </trkpt>
      <trkpt lat="44.54172" lon="-1.23352">
        <ele>-43.58</ele>
        <time>2016-01-15T13:11:03Z</time>
      </trkpt>
      <trkpt lat="44.54181" lon="-1.23349">
        <ele>-43.77</ele>
        <time>2016-01-15T13:11:05Z</time>
      </trkpt>
      <trkpt lat="44.542" lon="-1.23347">
        <ele>-43.43</ele>
        <time>2016-01-15T13:11:09Z</time>
      </trkpt>
      <trkpt lat="44.54269" lon="-1.23332">
        <ele>-43.45</ele>
        <time>2016-01-15T13:11:22Z</time>
      </trkpt>
      <trkpt lat="44.54341" lon="-1.23324">
        <ele>-42.44</ele>
        <time>2016-01-15T13:11:36Z</time>
      </trkpt>
      <trkpt lat="44.54362" lon="-1.23333">
        <ele>-42.71</ele>
        <time>2016-01-15T13:11:42Z</time>
      </trkpt>
      <trkpt lat="44.54387" lon="-1.23364">
        <ele>-43.78</ele>
        <time>2016-01-15T13:11:48Z</time>
      </trkpt>
      <trkpt lat="44.54395" lon="-1.23374">
        <ele>-43.75</ele>
        <time>2016-01-15T13:11:50Z</time>
      </trkpt>
      <trkpt lat="44.54444" lon="-1.23414">
        <ele>-43.73</ele>
        <time>2016-01-15T13:12:01Z</time>
      </trkpt>
      <trkpt lat="44.54461" lon="-1.23424">
        <ele>-43.43</ele>
        <time>2016-01-15T13:12:04Z</time>
      </trkpt>
      <trkpt lat="44.54484" lon="-1.23444">
        <ele>-43.61</ele>
        <time>2016-01-15T13:12:08Z</time>
      </trkpt>
      <trkpt lat="44.5454" lon="-1.23485">
        <ele>-43.53</ele>
        <time>2016-01-15T13:12:20Z</time>
      </trkpt>
      <trkpt lat="44.54567" lon="-1.23513">
        <ele>-43.1</ele>
        <time>2016-01-15T13:12:27Z</time>
      </trkpt>
      <trkpt lat="44.5459" lon="-1.23527">
        <ele>-43.29</ele>
        <time>2016-01-15T13:12:32Z</time>
      </trkpt>
      <trkpt lat="44.54616" lon="-1.23548">
        <ele>-44.34</ele>
        <time>2016-01-15T13:12:37Z</time>
      </trkpt>
      <trkpt lat="44.5464" lon="-1.23568">
        <ele>-43.99</ele>
        <time>2016-01-15T13:12:42Z</time>
      </trkpt>
      <trkpt lat="44.54696" lon="-1.23619">
        <ele>-43.72</ele>
        <time>2016-01-15T13:12:53Z</time>
      </trkpt>
      <trkpt lat="44.54701" lon="-1.23624">
        <ele>-43.8</ele>
        <time>2016-01-15T13:12:54Z</time>
      </trkpt>
      <trkpt lat="44.54741" lon="-1.23657">
        <ele>-43.56</ele>
        <time>2016-01-15T13:13:01Z</time>
      </trkpt>
      <trkpt lat="44.54773" lon="-1.23679">
        <ele>-43.99</ele>
        <time>2016-01-15T13:13:06Z</time>
      </trkpt>
      <trkpt lat="44.54865" lon="-1.23747">
        <ele>-44.68</ele>
        <time>2016-01-15T13:13:21Z</time>
      </trkpt>
      <trkpt lat="44.54893" lon="-1.23769">
        <ele>-44.91</ele>
        <time>2016-01-15T13:13:26Z</time>
      </trkpt>
      <trkpt lat="44.54958" lon="-1.2382">
        <ele>-45.29</ele>
        <time>2016-01-15T13:13:38Z</time>
      </trkpt>
      <trkpt lat="44.54994" lon="-1.23847">
        <ele>-46.2</ele>
        <time>2016-01-15T13:13:45Z</time>
      </trkpt>
      <trkpt lat="44.55026" lon="-1.23862">
        <ele>-46.74</ele>
        <time>2016-01-15T13:13:51Z</time>
      </trkpt>
      <trkpt lat="44.55051" lon="-1.23858">
        <ele>-45.93</ele>
        <time>2016-01-15T13:13:55Z</time>
      </trkpt>
      <trkpt lat="44.55141" lon="-1.2381">
        <ele>-45.52</ele>
        <time>2016-01-15T13:14:10Z</time>
      </trkpt>
      <trkpt lat="44.55186" lon="-1.23787">
        <ele>-45.63</ele>
        <time>2016-01-15T13:14:18Z</time>
      </trkpt>
      <trkpt lat="44.55208" lon="-1.23769">
        <ele>-44.99</ele>
        <time>2016-01-15T13:14:22Z</time>
      </trkpt>
      <trkpt lat="44.5527" lon="-1.23735">
        <ele>-41.75</ele>
        <time>2016-01-15T13:14:35Z</time>
      </trkpt>
      <trkpt lat="44.55312" lon="-1.23714">
        <ele>-38.64</ele>
        <time>2016-01-15T13:14:44Z</time>
      </trkpt>
      <trkpt lat="44.55321" lon="-1.23709">
        <ele>-38.18</ele>
        <time>2016-01-15T13:14:46Z</time>
      </trkpt>
      <trkpt lat="44.55347" lon="-1.23695">
        <ele>-36.41</ele>
        <time>2016-01-15T13:14:52Z</time>
      </trkpt>
      <trkpt lat="44.55405" lon="-1.23664">
        <ele>-33.15</ele>
        <time>2016-01-15T13:15:05Z</time>
      </trkpt>
      <trkpt lat="44.55422" lon="-1.23654">
        <ele>-31.84</ele>
        <time>2016-01-15T13:15:09Z</time>
      </trkpt>
      <trkpt lat="44.55462" lon="-1.23632">
        <ele>-29.53</ele>
        <time>2016-01-15T13:15:19Z</time>
      </trkpt>
      <trkpt lat="44.55469" lon="-1.23628">
        <ele>-29.15</ele>
        <time>2016-01-15T13:15:21Z</time>
      </trkpt>
      <trkpt lat="44.55512" lon="-1.23602">
        <ele>-25.7</ele>
        <time>2016-01-15T13:15:34Z</time>
      </trkpt>
      <trkpt lat="44.5553" lon="-1.23584">
        <ele>-24.89</ele>
        <time>2016-01-15T13:15:40Z</time>
      </trkpt>
      <trkpt lat="44.55571" lon="-1.23536">
        <ele>-24.42</ele>
        <time>2016-01-15T13:15:54Z</time>
      </trkpt>
      <trkpt lat="44.55586" lon="-1.23529">
        <ele>-25.06</ele>
        <time>2016-01-15T13:15:58Z</time>
      </trkpt>
      <trkpt lat="44.55593" lon="-1.23507">
        <ele>-24.89</ele>
        <time>2016-01-15T13:16:03Z</time>
      </trkpt>
      <trkpt lat="44.55594" lon="-1.23498">
        <ele>-25.24</ele>
        <time>2016-01-15T13:16:05Z</time>
      </trkpt>
      <trkpt lat="44.55595" lon="-1.23455">
        <ele>-26.18</ele>
        <time>2016-01-15T13:16:11Z</time>
      </trkpt>
      <trkpt lat="44.55612" lon="-1.23408">
        <ele>-27.69</ele>
        <time>2016-01-15T13:16:17Z</time>
      </trkpt>
      <trkpt lat="44.55646" lon="-1.23369">
        <ele>-31.03</ele>
        <time>2016-01-15T13:16:23Z</time>
      </trkpt>
      <trkpt lat="44.55662" lon="-1.23345">
        <ele>-32.4</ele>
        <time>2016-01-15T13:16:26Z</time>
      </trkpt>
      <trkpt lat="44.55671" lon="-1.23299">
        <ele>-34.67</ele>
        <time>2016-01-15T13:16:31Z</time>
      </trkpt>
      <trkpt lat="44.55669" lon="-1.23288">
        <ele>-35.07</ele>
        <time>2016-01-15T13:16:32Z</time>
      </trkpt>
      <trkpt lat="44.55662" lon="-1.23246">
        <ele>-37.3</ele>
        <time>2016-01-15T13:16:36Z</time>
      </trkpt>
      <trkpt lat="44.55663" lon="-1.23192">
        <ele>-34.69</ele>
        <time>2016-01-15T13:16:44Z</time>
      </trkpt>
      <trkpt lat="44.55663" lon="-1.23154">
        <ele>-31.58</ele>
        <time>2016-01-15T13:16:52Z</time>
      </trkpt>
      <trkpt lat="44.55671" lon="-1.23109">
        <ele>-28.5</ele>
        <time>2016-01-15T13:17:01Z</time>
      </trkpt>
      <trkpt lat="44.55674" lon="-1.23058">
        <ele>-26.2</ele>
        <time>2016-01-15T13:17:10Z</time>
      </trkpt>
      <trkpt lat="44.55674" lon="-1.23025">
        <ele>-26.1</ele>
        <time>2016-01-15T13:17:15Z</time>
      </trkpt>
      <trkpt lat="44.55669" lon="-1.22978">
        <ele>-24.97</ele>
        <time>2016-01-15T13:17:22Z</time>
      </trkpt>
      <trkpt lat="44.5566" lon="-1.2294">
        <ele>-22.54</ele>
        <time>2016-01-15T13:17:28Z</time>
      </trkpt>
      <trkpt lat="44.55656" lon="-1.22928">
        <ele>-22.41</ele>
        <time>2016-01-15T13:17:30Z</time>
      </trkpt>
      <trkpt lat="44.55637" lon="-1.22872">
        <ele>-19.66</ele>
        <time>2016-01-15T13:17:39Z</time>
      </trkpt>
      <trkpt lat="44.55602" lon="-1.22774">
        <ele>-18.11</ele>
        <time>2016-01-15T13:17:54Z</time>
      </trkpt>
      <trkpt lat="44.55599" lon="-1.2276">
        <ele>-17.85</ele>
        <time>2016-01-15T13:17:56Z</time>
      </trkpt>
      <trkpt lat="44.55591" lon="-1.22701">
        <ele>-14.29</ele>
        <time>2016-01-15T13:18:07Z</time>
      </trkpt>
      <trkpt lat="44.55588" lon="-1.22669">
        <ele>-11.07</ele>
        <time>2016-01-15T13:18:15Z</time>
      </trkpt>
      <trkpt lat="44.55581" lon="-1.22637">
        <ele>-7.83</ele>
        <time>2016-01-15T13:18:24Z</time>
      </trkpt>
      <trkpt lat="44.55575" lon="-1.22596">
        <ele>-4.69</ele>
        <time>2016-01-15T13:18:34Z</time>
      </trkpt>
      <trkpt lat="44.55566" lon="-1.22545">
        <ele>-1.68</ele>
        <time>2016-01-15T13:18:46Z</time>
      </trkpt>
      <trkpt lat="44.55558" lon="-1.22494">
        <ele>-1.05</ele>
        <time>2016-01-15T13:18:56Z</time>
      </trkpt>
      <trkpt lat="44.55544" lon="-1.22405">
        <ele>-1.75</ele>
        <time>2016-01-15T13:19:09Z</time>
      </trkpt>
      <trkpt lat="44.55539" lon="-1.22366">
        <ele>-1.03</ele>
        <time>2016-01-15T13:19:15Z</time>
      </trkpt>
      <trkpt lat="44.55548" lon="-1.22332">
        <ele>-0.8</ele>
        <time>2016-01-15T13:19:20Z</time>
      </trkpt>
      <trkpt lat="44.55566" lon="-1.22269">
        <ele>-4.09</ele>
        <time>2016-01-15T13:19:27Z</time>
      </trkpt>
      <trkpt lat="44.55564" lon="-1.22236">
        <ele>-5.03</ele>
        <time>2016-01-15T13:19:31Z</time>
      </trkpt>
      <trkpt lat="44.55552" lon="-1.22216">
        <ele>-4.52</ele>
        <time>2016-01-15T13:19:34Z</time>
      </trkpt>
      <trkpt lat="44.55542" lon="-1.22195">
        <ele>-4.39</ele>
        <time>2016-01-15T13:19:37Z</time>
      </trkpt>
      <trkpt lat="44.55525" lon="-1.22168">
        <ele>-4.67</ele>
        <time>2016-01-15T13:19:41Z</time>
      </trkpt>
      <trkpt lat="44.55499" lon="-1.22144">
        <ele>-5.25</ele>
        <time>2016-01-15T13:19:46Z</time>
      </trkpt>
      <trkpt lat="44.55476" lon="-1.22072">
        <ele>-6.73</ele>
        <time>2016-01-15T13:19:54Z</time>
      </trkpt>
      <trkpt lat="44.55475" lon="-1.22053">
        <ele>-7.43</ele>
        <time>2016-01-15T13:19:56Z</time>
      </trkpt>
      <trkpt lat="44.55472" lon="-1.22035">
        <ele>-7.04</ele>
        <time>2016-01-15T13:19:58Z</time>
      </trkpt>
      <trkpt lat="44.55469" lon="-1.21978">
        <ele>-5.09</ele>
        <time>2016-01-15T13:20:05Z</time>
      </trkpt>
      <trkpt lat="44.55463" lon="-1.21946">
        <ele>-4.46</ele>
        <time>2016-01-15T13:20:09Z</time>
      </trkpt>
      <trkpt lat="44.55462" lon="-1.21914">
        <ele>-4.95</ele>
        <time>2016-01-15T13:20:13Z</time>
      </trkpt>
      <trkpt lat="44.55451" lon="-1.21815">
        <ele>-8.85</ele>
        <time>2016-01-15T13:20:23Z</time>
      </trkpt>
      <trkpt lat="44.5544" lon="-1.21764">
        <ele>-12.44</ele>
        <time>2016-01-15T13:20:27Z</time>
      </trkpt>
      <trkpt lat="44.55423" lon="-1.21713">
        <ele>-15.68</ele>
        <time>2016-01-15T13:20:31Z</time>
      </trkpt>
      <trkpt lat="44.55414" lon="-1.21693">
        <ele>-16.1</ele>
        <time>2016-01-15T13:20:33Z</time>
      </trkpt>
      <trkpt lat="44.55419" lon="-1.21659">
        <ele>-14.14</ele>
        <time>2016-01-15T13:20:39Z</time>
      </trkpt>
      <trkpt lat="44.55455" lon="-1.21622">
        <ele>-10.54</ele>
        <time>2016-01-15T13:20:49Z</time>
      </trkpt>
      <trkpt lat="44.55468" lon="-1.2161">
        <ele>-9.55</ele>
        <time>2016-01-15T13:20:52Z</time>
      </trkpt>
      <trkpt lat="44.55522" lon="-1.21551">
        <ele>-8.54</ele>
        <time>2016-01-15T13:21:05Z</time>
      </trkpt>
      <trkpt lat="44.55586" lon="-1.21477">
        <ele>-11.96</ele>
        <time>2016-01-15T13:21:16Z</time>
      </trkpt>
      <trkpt lat="44.5562" lon="-1.21435">
        <ele>-15</ele>
        <time>2016-01-15T13:21:21Z</time>
      </trkpt>
      <trkpt lat="44.55649" lon="-1.21404">
        <ele>-16.16</ele>
        <time>2016-01-15T13:21:25Z</time>
      </trkpt>
      <trkpt lat="44.55664" lon="-1.21392">
        <ele>-15.6</ele>
        <time>2016-01-15T13:21:27Z</time>
      </trkpt>
      <trkpt lat="44.55693" lon="-1.2138">
        <ele>-12.4</ele>
        <time>2016-01-15T13:21:32Z</time>
      </trkpt>
      <trkpt lat="44.55722" lon="-1.21377">
        <ele>-13.45</ele>
        <time>2016-01-15T13:21:37Z</time>
      </trkpt>
      <trkpt lat="44.5577" lon="-1.21398">
        <ele>-17.29</ele>
        <time>2016-01-15T13:21:45Z</time>
      </trkpt>
      <trkpt lat="44.55803" lon="-1.21414">
        <ele>-19.41</ele>
        <time>2016-01-15T13:21:51Z</time>
      </trkpt>
      <trkpt lat="44.55813" lon="-1.214">
        <ele>-20.34</ele>
        <time>2016-01-15T13:21:57Z</time>
      </trkpt>
      <trkpt lat="44.55817" lon="-1.2139">
        <ele>-19.39</ele>
        <time>2016-01-15T13:22:10Z</time>
      </trkpt>
      <trkpt lat="44.55817" lon="-1.21387">
        <ele>-19.37</ele>
        <time>2016-01-15T13:22:21Z</time>
      </trkpt>
      <trkpt lat="44.55813" lon="-1.21377">
        <ele>-16.27</ele>
        <time>2016-01-15T13:22:31Z</time>
      </trkpt>
      <trkpt lat="44.55812" lon="-1.21375">
        <ele>-16.22</ele>
        <time>2016-01-15T13:22:33Z</time>
      </trkpt>
      <trkpt lat="44.55794" lon="-1.21356">
        <ele>-19.48</ele>
        <time>2016-01-15T13:22:45Z</time>
      </trkpt>
      <trkpt lat="44.55788" lon="-1.21341">
        <ele>-23.06</ele>
        <time>2016-01-15T13:22:50Z</time>
      </trkpt>
      <trkpt lat="44.55787" lon="-1.21336">
        <ele>-24.35</ele>
        <time>2016-01-15T13:22:52Z</time>
      </trkpt>
      <trkpt lat="44.55801" lon="-1.21323">
        <ele>-28.81</ele>
        <time>2016-01-15T13:22:58Z</time>
      </trkpt>
      <trkpt lat="44.55804" lon="-1.21317">
        <ele>-29.87</ele>
        <time>2016-01-15T13:23:00Z</time>
      </trkpt>
      <trkpt lat="44.55805" lon="-1.21306">
        <ele>-30.06</ele>
        <time>2016-01-15T13:23:05Z</time>
      </trkpt>
      <trkpt lat="44.55783" lon="-1.2127">
        <ele>-30.02</ele>
        <time>2016-01-15T13:23:16Z</time>
      </trkpt>
      <trkpt lat="44.55768" lon="-1.21201">
        <ele>-29.68</ele>
        <time>2016-01-15T13:23:28Z</time>
      </trkpt>
      <trkpt lat="44.55751" lon="-1.21173">
        <ele>-27.94</ele>
        <time>2016-01-15T13:23:36Z</time>
      </trkpt>
      <trkpt lat="44.55735" lon="-1.21153">
        <ele>-27.59</ele>
        <time>2016-01-15T13:23:40Z</time>
      </trkpt>
      <trkpt lat="44.55664" lon="-1.21071">
        <ele>-27.28</ele>
        <time>2016-01-15T13:23:53Z</time>
      </trkpt>
      <trkpt lat="44.55605" lon="-1.21002">
        <ele>-25.37</ele>
        <time>2016-01-15T13:24:04Z</time>
      </trkpt>
      <trkpt lat="44.55599" lon="-1.20997">
        <ele>-25.23</ele>
        <time>2016-01-15T13:24:05Z</time>
      </trkpt>
      <trkpt lat="44.55546" lon="-1.20941">
        <ele>-22.94</ele>
        <time>2016-01-15T13:24:15Z</time>
      </trkpt>
      <trkpt lat="44.55484" lon="-1.20874">
        <ele>-24.88</ele>
        <time>2016-01-15T13:24:27Z</time>
      </trkpt>
      <trkpt lat="44.55469" lon="-1.20862">
        <ele>-25.86</ele>
        <time>2016-01-15T13:24:29Z</time>
      </trkpt>
      <trkpt lat="44.55393" lon="-1.20825">
        <ele>-23.63</ele>
        <time>2016-01-15T13:24:40Z</time>
      </trkpt>
      <trkpt lat="44.55368" lon="-1.20813">
        <ele>-21.18</ele>
        <time>2016-01-15T13:24:45Z</time>
      </trkpt>
      <trkpt lat="44.55333" lon="-1.20795">
        <ele>-18.13</ele>
        <time>2016-01-15T13:24:53Z</time>
      </trkpt>
      <trkpt lat="44.55297" lon="-1.20764">
        <ele>-14.85</ele>
        <time>2016-01-15T13:25:04Z</time>
      </trkpt>
      <trkpt lat="44.55266" lon="-1.20732">
        <ele>-11.7</ele>
        <time>2016-01-15T13:25:16Z</time>
      </trkpt>
      <trkpt lat="44.55214" lon="-1.20709">
        <ele>-11.55</ele>
        <time>2016-01-15T13:25:27Z</time>
      </trkpt>
      <trkpt lat="44.55201" lon="-1.20704">
        <ele>-11.83</ele>
        <time>2016-01-15T13:25:29Z</time>
      </trkpt>
      <trkpt lat="44.55115" lon="-1.20678">
        <ele>-10.66</ele>
        <time>2016-01-15T13:25:42Z</time>
      </trkpt>
      <trkpt lat="44.55048" lon="-1.20656">
        <ele>-12.76</ele>
        <time>2016-01-15T13:25:52Z</time>
      </trkpt>
      <trkpt lat="44.55025" lon="-1.20632">
        <ele>-14.68</ele>
        <time>2016-01-15T13:25:56Z</time>
      </trkpt>
      <trkpt lat="44.55021" lon="-1.20589">
        <ele>-14.62</ele>
        <time>2016-01-15T13:26:00Z</time>
      </trkpt>
      <trkpt lat="44.55029" lon="-1.20503">
        <ele>-17.7</ele>
        <time>2016-01-15T13:26:07Z</time>
      </trkpt>
      <trkpt lat="44.55036" lon="-1.20446">
        <ele>-21.33</ele>
        <time>2016-01-15T13:26:11Z</time>
      </trkpt>
      <trkpt lat="44.55046" lon="-1.20362">
        <ele>-23.96</ele>
        <time>2016-01-15T13:26:17Z</time>
      </trkpt>
      <trkpt lat="44.55049" lon="-1.20324">
        <ele>-24.58</ele>
        <time>2016-01-15T13:26:20Z</time>
      </trkpt>
      <trkpt lat="44.55033" lon="-1.20262">
        <ele>-24.04</ele>
        <time>2016-01-15T13:26:26Z</time>
      </trkpt>
      <trkpt lat="44.55013" lon="-1.20179">
        <ele>-22.53</ele>
        <time>2016-01-15T13:26:35Z</time>
      </trkpt>
      <trkpt lat="44.54997" lon="-1.20177">
        <ele>-21.33</ele>
        <time>2016-01-15T13:26:41Z</time>
      </trkpt>
      <trkpt lat="44.54995" lon="-1.20183">
        <ele>-21.28</ele>
        <time>2016-01-15T13:26:42Z</time>
      </trkpt>
      <trkpt lat="44.54986" lon="-1.20215">
        <ele>-21.22</ele>
        <time>2016-01-15T13:26:47Z</time>
      </trkpt>
      <trkpt lat="44.54969" lon="-1.20275">
        <ele>-21.37</ele>
        <time>2016-01-15T13:26:55Z</time>
      </trkpt>
      <trkpt lat="44.54942" lon="-1.20326">
        <ele>-23.66</ele>
        <time>2016-01-15T13:27:01Z</time>
      </trkpt>
      <trkpt lat="44.54906" lon="-1.20393">
        <ele>-25.75</ele>
        <time>2016-01-15T13:27:08Z</time>
      </trkpt>
      <trkpt lat="44.54888" lon="-1.20414">
        <ele>-25.15</ele>
        <time>2016-01-15T13:27:11Z</time>
      </trkpt>
      <trkpt lat="44.54865" lon="-1.20428">
        <ele>-23.31</ele>
        <time>2016-01-15T13:27:15Z</time>
      </trkpt>
      <trkpt lat="44.54782" lon="-1.20456">
        <ele>-23.32</ele>
        <time>2016-01-15T13:27:28Z</time>
      </trkpt>
      <trkpt lat="44.54694" lon="-1.20483">
        <ele>-23.71</ele>
        <time>2016-01-15T13:27:41Z</time>
      </trkpt>
      <trkpt lat="44.54611" lon="-1.20514">
        <ele>-24.75</ele>
        <time>2016-01-15T13:27:53Z</time>
      </trkpt>
      <trkpt lat="44.54535" lon="-1.20548">
        <ele>-23.16</ele>
        <time>2016-01-15T13:28:05Z</time>
      </trkpt>
      <trkpt lat="44.54518" lon="-1.20553">
        <ele>-22.95</ele>
        <time>2016-01-15T13:28:08Z</time>
      </trkpt>
      <trkpt lat="44.54458" lon="-1.20565">
        <ele>-24.24</ele>
        <time>2016-01-15T13:28:17Z</time>
      </trkpt>
      <trkpt lat="44.54428" lon="-1.20565">
        <ele>-25.04</ele>
        <time>2016-01-15T13:28:23Z</time>
      </trkpt>
      <trkpt lat="44.54426" lon="-1.20544">
        <ele>-26.53</ele>
        <time>2016-01-15T13:28:27Z</time>
      </trkpt>
      <trkpt lat="44.54424" lon="-1.2051">
        <ele>-28.88</ele>
        <time>2016-01-15T13:28:31Z</time>
      </trkpt>
      <trkpt lat="44.5442" lon="-1.20477">
        <ele>-28.47</ele>
        <time>2016-01-15T13:28:35Z</time>
      </trkpt>
      <trkpt lat="44.54412" lon="-1.20456">
        <ele>-27.43</ele>
        <time>2016-01-15T13:28:38Z</time>
      </trkpt>
      <trkpt lat="44.54399" lon="-1.20439">
        <ele>-26.07</ele>
        <time>2016-01-15T13:28:42Z</time>
      </trkpt>
      <trkpt lat="44.54376" lon="-1.20391">
        <ele>-22.65</ele>
        <time>2016-01-15T13:28:54Z</time>
      </trkpt>
      <trkpt lat="44.54355" lon="-1.20353">
        <ele>-19.59</ele>
        <time>2016-01-15T13:29:04Z</time>
      </trkpt>
      <trkpt lat="44.54341" lon="-1.20309">
        <ele>-16.33</ele>
        <time>2016-01-15T13:29:17Z</time>
      </trkpt>
      <trkpt lat="44.5434" lon="-1.20305">
        <ele>-16.14</ele>
        <time>2016-01-15T13:29:18Z</time>
      </trkpt>
      <trkpt lat="44.54304" lon="-1.20265">
        <ele>-14.35</ele>
        <time>2016-01-15T13:29:32Z</time>
      </trkpt>
      <trkpt lat="44.54276" lon="-1.20235">
        <ele>-15.22</ele>
        <time>2016-01-15T13:29:42Z</time>
      </trkpt>
      <trkpt lat="44.5424" lon="-1.20185">
        <ele>-18.93</ele>
        <time>2016-01-15T13:29:51Z</time>
      </trkpt>
      <trkpt lat="44.54231" lon="-1.20173">
        <ele>-19.65</ele>
        <time>2016-01-15T13:29:53Z</time>
      </trkpt>
      <trkpt lat="44.54204" lon="-1.20151">
        <ele>-23.08</ele>
        <time>2016-01-15T13:29:57Z</time>
      </trkpt>
      <trkpt lat="44.54184" lon="-1.20129">
        <ele>-26.15</ele>
        <time>2016-01-15T13:30:00Z</time>
      </trkpt>
      <trkpt lat="44.54144" lon="-1.20096">
        <ele>-29.99</ele>
        <time>2016-01-15T13:30:06Z</time>
      </trkpt>
      <trkpt lat="44.54142" lon="-1.2009">
        <ele>-30.52</ele>
        <time>2016-01-15T13:30:07Z</time>
      </trkpt>
      <trkpt lat="44.54133" lon="-1.20073">
        <ele>-31.95</ele>
        <time>2016-01-15T13:30:12Z</time>
      </trkpt>
      <trkpt lat="44.54114" lon="-1.20069">
        <ele>-31.85</ele>
        <time>2016-01-15T13:30:17Z</time>
      </trkpt>
      <trkpt lat="44.54096" lon="-1.20072">
        <ele>-32.02</ele>
        <time>2016-01-15T13:30:21Z</time>
      </trkpt>
      <trkpt lat="44.54054" lon="-1.20088">
        <ele>-31.09</ele>
        <time>2016-01-15T13:30:32Z</time>
      </trkpt>
      <trkpt lat="44.54013" lon="-1.20091">
        <ele>-30.97</ele>
        <time>2016-01-15T13:30:40Z</time>
      </trkpt>
      <trkpt lat="44.53995" lon="-1.20082">
        <ele>-30.2</ele>
        <time>2016-01-15T13:30:44Z</time>
      </trkpt>
      <trkpt lat="44.53979" lon="-1.20073">
        <ele>-29.69</ele>
        <time>2016-01-15T13:30:48Z</time>
      </trkpt>
      <trkpt lat="44.53958" lon="-1.20063">
        <ele>-29.32</ele>
        <time>2016-01-15T13:30:53Z</time>
      </trkpt>
      <trkpt lat="44.53945" lon="-1.20056">
        <ele>-29.37</ele>
        <time>2016-01-15T13:30:56Z</time>
      </trkpt>
      <trkpt lat="44.53933" lon="-1.20039">
        <ele>-29.22</ele>
        <time>2016-01-15T13:31:00Z</time>
      </trkpt>
      <trkpt lat="44.53902" lon="-1.19991">
        <ele>-27.59</ele>
        <time>2016-01-15T13:31:12Z</time>
      </trkpt>
      <trkpt lat="44.53882" lon="-1.19938">
        <ele>-25.05</ele>
        <time>2016-01-15T13:31:24Z</time>
      </trkpt>
      <trkpt lat="44.53857" lon="-1.1989">
        <ele>-22.35</ele>
        <time>2016-01-15T13:31:36Z</time>
      </trkpt>
      <trkpt lat="44.53849" lon="-1.19883">
        <ele>-22.92</ele>
        <time>2016-01-15T13:31:38Z</time>
      </trkpt>
      <trkpt lat="44.53839" lon="-1.19843">
        <ele>-23.78</ele>
        <time>2016-01-15T13:31:45Z</time>
      </trkpt>
      <trkpt lat="44.53837" lon="-1.19831">
        <ele>-23.6</ele>
        <time>2016-01-15T13:31:47Z</time>
      </trkpt>
      <trkpt lat="44.53824" lon="-1.19759">
        <ele>-21.06</ele>
        <time>2016-01-15T13:32:01Z</time>
      </trkpt>
      <trkpt lat="44.53808" lon="-1.19692">
        <ele>-18.19</ele>
        <time>2016-01-15T13:32:15Z</time>
      </trkpt>
      <trkpt lat="44.53798" lon="-1.19663">
        <ele>-18.31</ele>
        <time>2016-01-15T13:32:21Z</time>
      </trkpt>
      <trkpt lat="44.53794" lon="-1.19642">
        <ele>-19.19</ele>
        <time>2016-01-15T13:32:24Z</time>
      </trkpt>
      <trkpt lat="44.53791" lon="-1.19626">
        <ele>-19.37</ele>
        <time>2016-01-15T13:32:26Z</time>
      </trkpt>
      <trkpt lat="44.5379" lon="-1.19609">
        <ele>-19.38</ele>
        <time>2016-01-15T13:32:28Z</time>
      </trkpt>
      <trkpt lat="44.53769" lon="-1.19569">
        <ele>-21.41</ele>
        <time>2016-01-15T13:32:34Z</time>
      </trkpt>
      <trkpt lat="44.5375" lon="-1.19531">
        <ele>-22.97</ele>
        <time>2016-01-15T13:32:40Z</time>
      </trkpt>
      <trkpt lat="44.53745" lon="-1.19509">
        <ele>-24.05</ele>
        <time>2016-01-15T13:32:43Z</time>
      </trkpt>
      <trkpt lat="44.53747" lon="-1.19474">
        <ele>-25.62</ele>
        <time>2016-01-15T13:32:47Z</time>
      </trkpt>
      <trkpt lat="44.5376" lon="-1.19415">
        <ele>-29.21</ele>
        <time>2016-01-15T13:32:53Z</time>
      </trkpt>
      <trkpt lat="44.53763" lon="-1.19405">
        <ele>-29.56</ele>
        <time>2016-01-15T13:32:54Z</time>
      </trkpt>
      <trkpt lat="44.53764" lon="-1.19385">
        <ele>-30.18</ele>
        <time>2016-01-15T13:32:56Z</time>
      </trkpt>
      <trkpt lat="44.53778" lon="-1.1929">
        <ele>-28.36</ele>
        <time>2016-01-15T13:33:08Z</time>
      </trkpt>
      <trkpt lat="44.53793" lon="-1.19188">
        <ele>-26.54</ele>
        <time>2016-01-15T13:33:21Z</time>
      </trkpt>
      <trkpt lat="44.53823" lon="-1.19102">
        <ele>-24.75</ele>
        <time>2016-01-15T13:33:34Z</time>
      </trkpt>
      <trkpt lat="44.53829" lon="-1.19091">
        <ele>-24.67</ele>
        <time>2016-01-15T13:33:36Z</time>
      </trkpt>
      <trkpt lat="44.53875" lon="-1.19035">
        <ele>-25.55</ele>
        <time>2016-01-15T13:33:49Z</time>
      </trkpt>
      <trkpt lat="44.53891" lon="-1.19016">
        <ele>-24.8</ele>
        <time>2016-01-15T13:34:01Z</time>
      </trkpt>
      <trkpt lat="44.53891" lon="-1.19012">
        <ele>-24.81</ele>
        <time>2016-01-15T13:34:06Z</time>
      </trkpt>
      <trkpt lat="44.53905" lon="-1.1896">
        <ele>-23.97</ele>
        <time>2016-01-15T13:34:17Z</time>
      </trkpt>
      <trkpt lat="44.53933" lon="-1.1885">
        <ele>-23.22</ele>
        <time>2016-01-15T13:34:31Z</time>
      </trkpt>
      <trkpt lat="44.53943" lon="-1.18785">
        <ele>-21.62</ele>
        <time>2016-01-15T13:34:39Z</time>
      </trkpt>
      <trkpt lat="44.53951" lon="-1.18728">
        <ele>-20.74</ele>
        <time>2016-01-15T13:34:46Z</time>
      </trkpt>
      <trkpt lat="44.53961" lon="-1.18638">
        <ele>-20.64</ele>
        <time>2016-01-15T13:34:55Z</time>
      </trkpt>
      <trkpt lat="44.53968" lon="-1.18575">
        <ele>-17.61</ele>
        <time>2016-01-15T13:35:02Z</time>
      </trkpt>
      <trkpt lat="44.53978" lon="-1.18465">
        <ele>-15.94</ele>
        <time>2016-01-15T13:35:15Z</time>
      </trkpt>
      <trkpt lat="44.53979" lon="-1.18388">
        <ele>-18.58</ele>
        <time>2016-01-15T13:35:23Z</time>
      </trkpt>
      <trkpt lat="44.53981" lon="-1.18365">
        <ele>-19.89</ele>
        <time>2016-01-15T13:35:25Z</time>
      </trkpt>
      <trkpt lat="44.53989" lon="-1.18327">
        <ele>-22.79</ele>
        <time>2016-01-15T13:35:28Z</time>
      </trkpt>
      <trkpt lat="44.54011" lon="-1.18275">
        <ele>-27.24</ele>
        <time>2016-01-15T13:35:32Z</time>
      </trkpt>
      <trkpt lat="44.5404" lon="-1.18218">
        <ele>-28.37</ele>
        <time>2016-01-15T13:35:38Z</time>
      </trkpt>
      <trkpt lat="44.54065" lon="-1.18228">
        <ele>-29.06</ele>
        <time>2016-01-15T13:35:44Z</time>
      </trkpt>
      <trkpt lat="44.54087" lon="-1.18258">
        <ele>-29.39</ele>
        <time>2016-01-15T13:35:50Z</time>
      </trkpt>
      <trkpt lat="44.54108" lon="-1.18271">
        <ele>-29.37</ele>
        <time>2016-01-15T13:35:54Z</time>
      </trkpt>
      <trkpt lat="44.54147" lon="-1.18277">
        <ele>-29.93</ele>
        <time>2016-01-15T13:36:00Z</time>
      </trkpt>
      <trkpt lat="44.54168" lon="-1.18272">
        <ele>-30.18</ele>
        <time>2016-01-15T13:36:03Z</time>
      </trkpt>
      <trkpt lat="44.54215" lon="-1.18241">
        <ele>-29.07</ele>
        <time>2016-01-15T13:36:10Z</time>
      </trkpt>
      <trkpt lat="44.54267" lon="-1.18209">
        <ele>-28.85</ele>
        <time>2016-01-15T13:36:18Z</time>
      </trkpt>
      <trkpt lat="44.54344" lon="-1.18146">
        <ele>-30.48</ele>
        <time>2016-01-15T13:36:30Z</time>
      </trkpt>
      <trkpt lat="44.54364" lon="-1.18115">
        <ele>-30.83</ele>
        <time>2016-01-15T13:36:34Z</time>
      </trkpt>
      <trkpt lat="44.54385" lon="-1.18064">
        <ele>-30.65</ele>
        <time>2016-01-15T13:36:39Z</time>
      </trkpt>
      <trkpt lat="44.54433" lon="-1.18025">
        <ele>-27.5</ele>
        <time>2016-01-15T13:36:48Z</time>
      </trkpt>
      <trkpt lat="44.54457" lon="-1.18047">
        <ele>-24.84</ele>
        <time>2016-01-15T13:36:55Z</time>
      </trkpt>
      <trkpt lat="44.54479" lon="-1.18108">
        <ele>-26.88</ele>
        <time>2016-01-15T13:37:03Z</time>
      </trkpt>
      <trkpt lat="44.54505" lon="-1.18219">
        <ele>-25.06</ele>
        <time>2016-01-15T13:37:16Z</time>
      </trkpt>
      <trkpt lat="44.54506" lon="-1.18226">
        <ele>-24.64</ele>
        <time>2016-01-15T13:37:17Z</time>
      </trkpt>
      <trkpt lat="44.54512" lon="-1.18275">
        <ele>-20.9</ele>
        <time>2016-01-15T13:37:28Z</time>
      </trkpt>
      <trkpt lat="44.54518" lon="-1.18322">
        <ele>-17.74</ele>
        <time>2016-01-15T13:37:39Z</time>
      </trkpt>
      <trkpt lat="44.54526" lon="-1.18369">
        <ele>-16.23</ele>
        <time>2016-01-15T13:37:48Z</time>
      </trkpt>
      <trkpt lat="44.54529" lon="-1.18387">
        <ele>-15.99</ele>
        <time>2016-01-15T13:37:51Z</time>
      </trkpt>
      <trkpt lat="44.54553" lon="-1.18462">
        <ele>-19.16</ele>
        <time>2016-01-15T13:38:01Z</time>
      </trkpt>
      <trkpt lat="44.54584" lon="-1.18527">
        <ele>-22.36</ele>
        <time>2016-01-15T13:38:08Z</time>
      </trkpt>
      <trkpt lat="44.54608" lon="-1.18577">
        <ele>-25.47</ele>
        <time>2016-01-15T13:38:13Z</time>
      </trkpt>
      <trkpt lat="44.54651" lon="-1.18685">
        <ele>-28.11</ele>
        <time>2016-01-15T13:38:23Z</time>
      </trkpt>
      <trkpt lat="44.54671" lon="-1.18769">
        <ele>-26.32</ele>
        <time>2016-01-15T13:38:32Z</time>
      </trkpt>
      <trkpt lat="44.5468" lon="-1.18819">
        <ele>-22.59</ele>
        <time>2016-01-15T13:38:42Z</time>
      </trkpt>
      <trkpt lat="44.54707" lon="-1.18902">
        <ele>-21.74</ele>
        <time>2016-01-15T13:38:56Z</time>
      </trkpt>
      <trkpt lat="44.54733" lon="-1.18952">
        <ele>-26.21</ele>
        <time>2016-01-15T13:39:02Z</time>
      </trkpt>
      <trkpt lat="44.54742" lon="-1.18969">
        <ele>-26.91</ele>
        <time>2016-01-15T13:39:04Z</time>
      </trkpt>
      <trkpt lat="44.5476" lon="-1.19006">
        <ele>-26.94</ele>
        <time>2016-01-15T13:39:08Z</time>
      </trkpt>
      <trkpt lat="44.54793" lon="-1.19123">
        <ele>-30.29</ele>
        <time>2016-01-15T13:39:18Z</time>
      </trkpt>
      <trkpt lat="44.5483" lon="-1.19272">
        <ele>-30.94</ele>
        <time>2016-01-15T13:39:32Z</time>
      </trkpt>
      <trkpt lat="44.54842" lon="-1.19307">
        <ele>-30.9</ele>
        <time>2016-01-15T13:39:36Z</time>
      </trkpt>
      <trkpt lat="44.54871" lon="-1.19317">
        <ele>-31.12</ele>
        <time>2016-01-15T13:39:43Z</time>
      </trkpt>
      <trkpt lat="44.54874" lon="-1.19312">
        <ele>-31</ele>
        <time>2016-01-15T13:39:44Z</time>
      </trkpt>
      <trkpt lat="44.54938" lon="-1.19218">
        <ele>-30.19</ele>
        <time>2016-01-15T13:39:59Z</time>
      </trkpt>
      <trkpt lat="44.55012" lon="-1.19111">
        <ele>-30.1</ele>
        <time>2016-01-15T13:40:13Z</time>
      </trkpt>
      <trkpt lat="44.55028" lon="-1.19087">
        <ele>-29.87</ele>
        <time>2016-01-15T13:40:16Z</time>
      </trkpt>
      <trkpt lat="44.55081" lon="-1.18995">
        <ele>-30.06</ele>
        <time>2016-01-15T13:40:26Z</time>
      </trkpt>
      <trkpt lat="44.55155" lon="-1.18884">
        <ele>-30.58</ele>
        <time>2016-01-15T13:40:40Z</time>
      </trkpt>
      <trkpt lat="44.5519" lon="-1.18832">
        <ele>-30.75</ele>
        <time>2016-01-15T13:40:47Z</time>
      </trkpt>
      <trkpt lat="44.5521" lon="-1.18806">
        <ele>-29.92</ele>
        <time>2016-01-15T13:40:51Z</time>
      </trkpt>
      <trkpt lat="44.55249" lon="-1.18767">
        <ele>-27.31</ele>
        <time>2016-01-15T13:41:02Z</time>
      </trkpt>
      <trkpt lat="44.55292" lon="-1.18778">
        <ele>-24.68</ele>
        <time>2016-01-15T13:41:14Z</time>
      </trkpt>
      <trkpt lat="44.55346" lon="-1.18784">
        <ele>-24.53</ele>
        <time>2016-01-15T13:41:27Z</time>
      </trkpt>
      <trkpt lat="44.55394" lon="-1.18802">
        <ele>-23.44</ele>
        <time>2016-01-15T13:41:40Z</time>
      </trkpt>
      <trkpt lat="44.55401" lon="-1.18804">
        <ele>-24.14</ele>
        <time>2016-01-15T13:41:42Z</time>
      </trkpt>
      <trkpt lat="44.55439" lon="-1.18786">
        <ele>-22.53</ele>
        <time>2016-01-15T13:41:54Z</time>
      </trkpt>
      <trkpt lat="44.55467" lon="-1.18746">
        <ele>-19.63</ele>
        <time>2016-01-15T13:42:07Z</time>
      </trkpt>
      <trkpt lat="44.55491" lon="-1.18712">
        <ele>-18.17</ele>
        <time>2016-01-15T13:42:20Z</time>
      </trkpt>
      <trkpt lat="44.55524" lon="-1.18706">
        <ele>-15.38</ele>
        <time>2016-01-15T13:42:32Z</time>
      </trkpt>
      <trkpt lat="44.55556" lon="-1.18698">
        <ele>-13.72</ele>
        <time>2016-01-15T13:42:43Z</time>
      </trkpt>
      <trkpt lat="44.55564" lon="-1.18701">
        <ele>-13.4</ele>
        <time>2016-01-15T13:42:52Z</time>
      </trkpt>
      <trkpt lat="44.55567" lon="-1.18698">
        <ele>-13.04</ele>
        <time>2016-01-15T13:43:03Z</time>
      </trkpt>
      <trkpt lat="44.55577" lon="-1.187">
        <ele>-12.42</ele>
        <time>2016-01-15T13:43:54Z</time>
      </trkpt>
      <trkpt lat="44.55588" lon="-1.18701">
        <ele>-10.78</ele>
        <time>2016-01-15T13:44:14Z</time>
      </trkpt>
      <trkpt lat="44.55595" lon="-1.18699">
        <ele>-11.2</ele>
        <time>2016-01-15T13:44:31Z</time>
      </trkpt>
      <trkpt lat="44.55611" lon="-1.18694">
        <ele>-13.48</ele>
        <time>2016-01-15T13:44:36Z</time>
      </trkpt>
      <trkpt lat="44.55631" lon="-1.18693">
        <ele>-15.88</ele>
        <time>2016-01-15T13:44:40Z</time>
      </trkpt>
      <trkpt lat="44.55669" lon="-1.18688">
        <ele>-14.56</ele>
        <time>2016-01-15T13:44:51Z</time>
      </trkpt>
      <trkpt lat="44.55689" lon="-1.18691">
        <ele>-16.08</ele>
        <time>2016-01-15T13:44:56Z</time>
      </trkpt>
      <trkpt lat="44.55719" lon="-1.18703">
        <ele>-19.64</ele>
        <time>2016-01-15T13:45:00Z</time>
      </trkpt>
      <trkpt lat="44.55735" lon="-1.18714">
        <ele>-21.93</ele>
        <time>2016-01-15T13:45:02Z</time>
      </trkpt>
      <trkpt lat="44.5575" lon="-1.18721">
        <ele>-22.59</ele>
        <time>2016-01-15T13:45:04Z</time>
      </trkpt>
      <trkpt lat="44.55782" lon="-1.18716">
        <ele>-24.07</ele>
        <time>2016-01-15T13:45:10Z</time>
      </trkpt>
      <trkpt lat="44.5581" lon="-1.18707">
        <ele>-27.25</ele>
        <time>2016-01-15T13:45:15Z</time>
      </trkpt>
      <trkpt lat="44.5584" lon="-1.18688">
        <ele>-29.81</ele>
        <time>2016-01-15T13:45:20Z</time>
      </trkpt>
      <trkpt lat="44.55889" lon="-1.18662">
        <ele>-26.61</ele>
        <time>2016-01-15T13:45:30Z</time>
      </trkpt>
      <trkpt lat="44.55921" lon="-1.18636">
        <ele>-23.35</ele>
        <time>2016-01-15T13:45:41Z</time>
      </trkpt>
      <trkpt lat="44.55967" lon="-1.1864">
        <ele>-21.34</ele>
        <time>2016-01-15T13:45:54Z</time>
      </trkpt>
      <trkpt lat="44.55992" lon="-1.18663">
        <ele>-20.42</ele>
        <time>2016-01-15T13:46:04Z</time>
      </trkpt>
      <trkpt lat="44.56012" lon="-1.18684">
        <ele>-22.31</ele>
        <time>2016-01-15T13:46:09Z</time>
      </trkpt>
      <trkpt lat="44.56021" lon="-1.18702">
        <ele>-21.7</ele>
        <time>2016-01-15T13:46:12Z</time>
      </trkpt>
      <trkpt lat="44.56038" lon="-1.18734">
        <ele>-21.42</ele>
        <time>2016-01-15T13:46:18Z</time>
      </trkpt>
      <trkpt lat="44.56042" lon="-1.18789">
        <ele>-21.84</ele>
        <time>2016-01-15T13:46:27Z</time>
      </trkpt>
      <trkpt lat="44.56038" lon="-1.1881">
        <ele>-22.3</ele>
        <time>2016-01-15T13:46:30Z</time>
      </trkpt>
      <trkpt lat="44.56035" lon="-1.18892">
        <ele>-20.7</ele>
        <time>2016-01-15T13:46:43Z</time>
      </trkpt>
      <trkpt lat="44.56033" lon="-1.18989">
        <ele>-20.79</ele>
        <time>2016-01-15T13:46:57Z</time>
      </trkpt>
      <trkpt lat="44.56035" lon="-1.19055">
        <ele>-18.71</ele>
        <time>2016-01-15T13:47:09Z</time>
      </trkpt>
      <trkpt lat="44.56037" lon="-1.19069">
        <ele>-17.9</ele>
        <time>2016-01-15T13:47:17Z</time>
      </trkpt>
      <trkpt lat="44.5604" lon="-1.19097">
        <ele>-18.27</ele>
        <time>2016-01-15T13:47:29Z</time>
      </trkpt>
      <trkpt lat="44.56038" lon="-1.19111">
        <ele>-19.31</ele>
        <time>2016-01-15T13:47:32Z</time>
      </trkpt>
      <trkpt lat="44.56037" lon="-1.19155">
        <ele>-23.74</ele>
        <time>2016-01-15T13:47:37Z</time>
      </trkpt>
      <trkpt lat="44.56037" lon="-1.19177">
        <ele>-25.23</ele>
        <time>2016-01-15T13:47:39Z</time>
      </trkpt>
      <trkpt lat="44.5604" lon="-1.19202">
        <ele>-26.56</ele>
        <time>2016-01-15T13:47:41Z</time>
      </trkpt>
      <trkpt lat="44.56037" lon="-1.19269">
        <ele>-29.74</ele>
        <time>2016-01-15T13:47:47Z</time>
      </trkpt>
      <trkpt lat="44.56037" lon="-1.19318">
        <ele>-31.06</ele>
        <time>2016-01-15T13:47:53Z</time>
      </trkpt>
      <trkpt lat="44.56039" lon="-1.19333">
        <ele>-31.41</ele>
        <time>2016-01-15T13:47:55Z</time>
      </trkpt>
      <trkpt lat="44.5604" lon="-1.19415">
        <ele>-31.85</ele>
        <time>2016-01-15T13:48:06Z</time>
      </trkpt>
      <trkpt lat="44.56038" lon="-1.19486">
        <ele>-29.84</ele>
        <time>2016-01-15T13:48:18Z</time>
      </trkpt>
      <trkpt lat="44.56039" lon="-1.19535">
        <ele>-26.56</ele>
        <time>2016-01-15T13:48:28Z</time>
      </trkpt>
      <trkpt lat="44.56055" lon="-1.19584">
        <ele>-23.94</ele>
        <time>2016-01-15T13:48:42Z</time>
      </trkpt>
      <trkpt lat="44.56073" lon="-1.19596">
        <ele>-21.34</ele>
        <time>2016-01-15T13:48:49Z</time>
      </trkpt>
      <trkpt lat="44.56099" lon="-1.19622">
        <ele>-19.94</ele>
        <time>2016-01-15T13:49:01Z</time>
      </trkpt>
      <trkpt lat="44.56135" lon="-1.19671">
        <ele>-22.58</ele>
        <time>2016-01-15T13:49:11Z</time>
      </trkpt>
      <trkpt lat="44.56146" lon="-1.19689">
        <ele>-22.98</ele>
        <time>2016-01-15T13:49:14Z</time>
      </trkpt>
      <trkpt lat="44.56159" lon="-1.19707">
        <ele>-22.33</ele>
        <time>2016-01-15T13:49:18Z</time>
      </trkpt>
      <trkpt lat="44.56176" lon="-1.19757">
        <ele>-22.85</ele>
        <time>2016-01-15T13:49:27Z</time>
      </trkpt>
      <trkpt lat="44.56188" lon="-1.19785">
        <ele>-24.49</ele>
        <time>2016-01-15T13:49:31Z</time>
      </trkpt>
      <trkpt lat="44.56192" lon="-1.19792">
        <ele>-24.7</ele>
        <time>2016-01-15T13:49:32Z</time>
      </trkpt>
      <trkpt lat="44.56205" lon="-1.19843">
        <ele>-22.67</ele>
        <time>2016-01-15T13:49:42Z</time>
      </trkpt>
      <trkpt lat="44.56208" lon="-1.19859">
        <ele>-23.77</ele>
        <time>2016-01-15T13:49:45Z</time>
      </trkpt>
      <trkpt lat="44.56209" lon="-1.19873">
        <ele>-24.25</ele>
        <time>2016-01-15T13:49:47Z</time>
      </trkpt>
      <trkpt lat="44.56207" lon="-1.199">
        <ele>-24.71</ele>
        <time>2016-01-15T13:49:51Z</time>
      </trkpt>
      <trkpt lat="44.56215" lon="-1.19986">
        <ele>-23.85</ele>
        <time>2016-01-15T13:50:04Z</time>
      </trkpt>
      <trkpt lat="44.56221" lon="-1.20018">
        <ele>-23.85</ele>
        <time>2016-01-15T13:50:09Z</time>
      </trkpt>
      <trkpt lat="44.56237" lon="-1.20074">
        <ele>-22.4</ele>
        <time>2016-01-15T13:50:21Z</time>
      </trkpt>
      <trkpt lat="44.5624" lon="-1.20079">
        <ele>-22.56</ele>
        <time>2016-01-15T13:50:36Z</time>
      </trkpt>
      <trkpt lat="44.56238" lon="-1.20079">
        <ele>-22.37</ele>
        <time>2016-01-15T13:50:42Z</time>
      </trkpt>
      <trkpt lat="44.56236" lon="-1.20078">
        <ele>-22.08</ele>
        <time>2016-01-15T13:50:46Z</time>
      </trkpt>
      <trkpt lat="44.56228" lon="-1.20106">
        <ele>-21.62</ele>
        <time>2016-01-15T13:50:58Z</time>
      </trkpt>
      <trkpt lat="44.56231" lon="-1.20111">
        <ele>-20.98</ele>
        <time>2016-01-15T13:51:06Z</time>
      </trkpt>
      <trkpt lat="44.56246" lon="-1.20078">
        <ele>-22.5</ele>
        <time>2016-01-15T13:51:14Z</time>
      </trkpt>
      <trkpt lat="44.56251" lon="-1.20067">
        <ele>-23.34</ele>
        <time>2016-01-15T13:51:16Z</time>
      </trkpt>
      <trkpt lat="44.56265" lon="-1.20047">
        <ele>-24.77</ele>
        <time>2016-01-15T13:51:20Z</time>
      </trkpt>
      <trkpt lat="44.56278" lon="-1.20023">
        <ele>-26.67</ele>
        <time>2016-01-15T13:51:24Z</time>
      </trkpt>
      <trkpt lat="44.56294" lon="-1.19987">
        <ele>-27.87</ele>
        <time>2016-01-15T13:51:29Z</time>
      </trkpt>
      <trkpt lat="44.56326" lon="-1.19945">
        <ele>-29.35</ele>
        <time>2016-01-15T13:51:36Z</time>
      </trkpt>
      <trkpt lat="44.56351" lon="-1.19862">
        <ele>-32.11</ele>
        <time>2016-01-15T13:51:45Z</time>
      </trkpt>
      <trkpt lat="44.56366" lon="-1.19821">
        <ele>-31.89</ele>
        <time>2016-01-15T13:51:50Z</time>
      </trkpt>
      <trkpt lat="44.56378" lon="-1.19806">
        <ele>-30.82</ele>
        <time>2016-01-15T13:51:53Z</time>
      </trkpt>
      <trkpt lat="44.56387" lon="-1.19799">
        <ele>-29.78</ele>
        <time>2016-01-15T13:51:55Z</time>
      </trkpt>
      <trkpt lat="44.56422" lon="-1.19769">
        <ele>-27.67</ele>
        <time>2016-01-15T13:52:04Z</time>
      </trkpt>
      <trkpt lat="44.56456" lon="-1.19733">
        <ele>-31.18</ele>
        <time>2016-01-15T13:52:12Z</time>
      </trkpt>
      <trkpt lat="44.56462" lon="-1.19732">
        <ele>-31.52</ele>
        <time>2016-01-15T13:52:13Z</time>
      </trkpt>
      <trkpt lat="44.56481" lon="-1.1973">
        <ele>-32.44</ele>
        <time>2016-01-15T13:52:16Z</time>
      </trkpt>
      <trkpt lat="44.56536" lon="-1.19728">
        <ele>-32.34</ele>
        <time>2016-01-15T13:52:26Z</time>
      </trkpt>
      <trkpt lat="44.56554" lon="-1.1972">
        <ele>-31.82</ele>
        <time>2016-01-15T13:52:30Z</time>
      </trkpt>
      <trkpt lat="44.56562" lon="-1.19713">
        <ele>-31.65</ele>
        <time>2016-01-15T13:52:32Z</time>
      </trkpt>
      <trkpt lat="44.56579" lon="-1.19696">
        <ele>-31.59</ele>
        <time>2016-01-15T13:52:36Z</time>
      </trkpt>
      <trkpt lat="44.56607" lon="-1.19677">
        <ele>-31.99</ele>
        <time>2016-01-15T13:52:42Z</time>
      </trkpt>
      <trkpt lat="44.56621" lon="-1.19663">
        <ele>-32.08</ele>
        <time>2016-01-15T13:52:46Z</time>
      </trkpt>
      <trkpt lat="44.5665" lon="-1.19621">
        <ele>-31.59</ele>
        <time>2016-01-15T13:52:55Z</time>
      </trkpt>
      <trkpt lat="44.56655" lon="-1.19611">
        <ele>-31.48</ele>
        <time>2016-01-15T13:52:57Z</time>
      </trkpt>
      <trkpt lat="44.56683" lon="-1.19576">
        <ele>-31.82</ele>
        <time>2016-01-15T13:53:07Z</time>
      </trkpt>
      <trkpt lat="44.56693" lon="-1.1956">
        <ele>-31.44</ele>
        <time>2016-01-15T13:53:10Z</time>
      </trkpt>
      <trkpt lat="44.56715" lon="-1.19545">
        <ele>-31.61</ele>
        <time>2016-01-15T13:53:15Z</time>
      </trkpt>
      <trkpt lat="44.5675" lon="-1.19511">
        <ele>-31.88</ele>
        <time>2016-01-15T13:53:23Z</time>
      </trkpt>
      <trkpt lat="44.56771" lon="-1.19457">
        <ele>-31.53</ele>
        <time>2016-01-15T13:53:32Z</time>
      </trkpt>
      <trkpt lat="44.56787" lon="-1.19355">
        <ele>-30.27</ele>
        <time>2016-01-15T13:53:47Z</time>
      </trkpt>
      <trkpt lat="44.56804" lon="-1.19274">
        <ele>-30.43</ele>
        <time>2016-01-15T13:54:01Z</time>
      </trkpt>
      <trkpt lat="44.56811" lon="-1.19247">
        <ele>-30.36</ele>
        <time>2016-01-15T13:54:08Z</time>
      </trkpt>
      <trkpt lat="44.56803" lon="-1.19241">
        <ele>-30.05</ele>
        <time>2016-01-15T13:54:13Z</time>
      </trkpt>
      <trkpt lat="44.5677" lon="-1.19232">
        <ele>-28.06</ele>
        <time>2016-01-15T13:54:27Z</time>
      </trkpt>
      <trkpt lat="44.56749" lon="-1.19206">
        <ele>-28.81</ele>
        <time>2016-01-15T13:54:35Z</time>
      </trkpt>
      <trkpt lat="44.56716" lon="-1.19157">
        <ele>-27.29</ele>
        <time>2016-01-15T13:54:48Z</time>
      </trkpt>
      <trkpt lat="44.56704" lon="-1.19128">
        <ele>-27.25</ele>
        <time>2016-01-15T13:54:54Z</time>
      </trkpt>
      <trkpt lat="44.56697" lon="-1.19102">
        <ele>-26.87</ele>
        <time>2016-01-15T13:54:59Z</time>
      </trkpt>
      <trkpt lat="44.56693" lon="-1.19081">
        <ele>-26.27</ele>
        <time>2016-01-15T13:55:03Z</time>
      </trkpt>
      <trkpt lat="44.56695" lon="-1.19064">
        <ele>-26.01</ele>
        <time>2016-01-15T13:55:06Z</time>
      </trkpt>
      <trkpt lat="44.56701" lon="-1.18999">
        <ele>-25.37</ele>
        <time>2016-01-15T13:55:17Z</time>
      </trkpt>
      <trkpt lat="44.56702" lon="-1.18984">
        <ele>-25.58</ele>
        <time>2016-01-15T13:55:19Z</time>
      </trkpt>
      <trkpt lat="44.56703" lon="-1.1895">
        <ele>-24.6</ele>
        <time>2016-01-15T13:55:25Z</time>
      </trkpt>
      <trkpt lat="44.567" lon="-1.18932">
        <ele>-22.31</ele>
        <time>2016-01-15T13:55:30Z</time>
      </trkpt>
      <trkpt lat="44.56685" lon="-1.18899">
        <ele>-18.9</ele>
        <time>2016-01-15T13:55:41Z</time>
      </trkpt>
      <trkpt lat="44.56667" lon="-1.18859">
        <ele>-21.94</ele>
        <time>2016-01-15T13:55:52Z</time>
      </trkpt>
      <trkpt lat="44.5666" lon="-1.18846">
        <ele>-23.06</ele>
        <time>2016-01-15T13:55:54Z</time>
      </trkpt>
      <trkpt lat="44.56615" lon="-1.18796">
        <ele>-25.04</ele>
        <time>2016-01-15T13:56:02Z</time>
      </trkpt>
      <trkpt lat="44.56599" lon="-1.18769">
        <ele>-23.4</ele>
        <time>2016-01-15T13:56:08Z</time>
      </trkpt>
      <trkpt lat="44.56582" lon="-1.1876">
        <ele>-23.35</ele>
        <time>2016-01-15T13:56:12Z</time>
      </trkpt>
      <trkpt lat="44.56569" lon="-1.18746">
        <ele>-22.3</ele>
        <time>2016-01-15T13:56:16Z</time>
      </trkpt>
      <trkpt lat="44.56549" lon="-1.18719">
        <ele>-18.67</ele>
        <time>2016-01-15T13:56:26Z</time>
      </trkpt>
      <trkpt lat="44.56532" lon="-1.18665">
        <ele>-16.17</ele>
        <time>2016-01-15T13:56:40Z</time>
      </trkpt>
      <trkpt lat="44.56528" lon="-1.18626">
        <ele>-15</ele>
        <time>2016-01-15T13:56:49Z</time>
      </trkpt>
      <trkpt lat="44.56533" lon="-1.18609">
        <ele>-14.99</ele>
        <time>2016-01-15T13:56:52Z</time>
      </trkpt>
      <trkpt lat="44.56544" lon="-1.18588">
        <ele>-13.69</ele>
        <time>2016-01-15T13:56:57Z</time>
      </trkpt>
      <trkpt lat="44.56557" lon="-1.18528">
        <ele>-15.32</ele>
        <time>2016-01-15T13:57:07Z</time>
      </trkpt>
      <trkpt lat="44.56553" lon="-1.18481">
        <ele>-16.58</ele>
        <time>2016-01-15T13:57:12Z</time>
      </trkpt>
      <trkpt lat="44.56539" lon="-1.18447">
        <ele>-14.99</ele>
        <time>2016-01-15T13:57:19Z</time>
      </trkpt>
      <trkpt lat="44.56504" lon="-1.18446">
        <ele>-15.54</ele>
        <time>2016-01-15T13:57:29Z</time>
      </trkpt>
      <trkpt lat="44.56481" lon="-1.1846">
        <ele>-20.14</ele>
        <time>2016-01-15T13:57:34Z</time>
      </trkpt>
      <trkpt lat="44.56474" lon="-1.18463">
        <ele>-21.3</ele>
        <time>2016-01-15T13:57:36Z</time>
      </trkpt>
      <trkpt lat="44.56471" lon="-1.18441">
        <ele>-22.48</ele>
        <time>2016-01-15T13:57:48Z</time>
      </trkpt>
      <trkpt lat="44.56471" lon="-1.18433">
        <ele>-22.47</ele>
        <time>2016-01-15T13:57:50Z</time>
      </trkpt>
      <trkpt lat="44.56486" lon="-1.18367">
        <ele>-21.07</ele>
        <time>2016-01-15T13:58:06Z</time>
      </trkpt>
      <trkpt lat="44.56505" lon="-1.18331">
        <ele>-18.06</ele>
        <time>2016-01-15T13:58:16Z</time>
      </trkpt>
      <trkpt lat="44.56526" lon="-1.18297">
        <ele>-17.01</ele>
        <time>2016-01-15T13:58:27Z</time>
      </trkpt>
      <trkpt lat="44.56544" lon="-1.18279">
        <ele>-14.7</ele>
        <time>2016-01-15T13:58:33Z</time>
      </trkpt>
      <trkpt lat="44.56568" lon="-1.18252">
        <ele>-13.43</ele>
        <time>2016-01-15T13:58:44Z</time>
      </trkpt>
      <trkpt lat="44.56592" lon="-1.18214">
        <ele>-11.94</ele>
        <time>2016-01-15T13:58:57Z</time>
      </trkpt>
      <trkpt lat="44.56612" lon="-1.18161">
        <ele>-9</ele>
        <time>2016-01-15T13:59:10Z</time>
      </trkpt>
      <trkpt lat="44.56634" lon="-1.18105">
        <ele>-6.27</ele>
        <time>2016-01-15T13:59:23Z</time>
      </trkpt>
      <trkpt lat="44.56644" lon="-1.18089">
        <ele>-7.09</ele>
        <time>2016-01-15T13:59:27Z</time>
      </trkpt>
      <trkpt lat="44.56658" lon="-1.1806">
        <ele>-9.11</ele>
        <time>2016-01-15T13:59:31Z</time>
      </trkpt>
      <trkpt lat="44.56665" lon="-1.18021">
        <ele>-13.16</ele>
        <time>2016-01-15T13:59:36Z</time>
      </trkpt>
      <trkpt lat="44.5667" lon="-1.18002">
        <ele>-15.29</ele>
        <time>2016-01-15T13:59:38Z</time>
      </trkpt>
      <trkpt lat="44.56683" lon="-1.17977">
        <ele>-18.71</ele>
        <time>2016-01-15T13:59:41Z</time>
      </trkpt>
      <trkpt lat="44.56686" lon="-1.17931">
        <ele>-22.63</ele>
        <time>2016-01-15T13:59:46Z</time>
      </trkpt>
      <trkpt lat="44.56667" lon="-1.17868">
        <ele>-27.28</ele>
        <time>2016-01-15T13:59:52Z</time>
      </trkpt>
      <trkpt lat="44.56637" lon="-1.17796">
        <ele>-28.95</ele>
        <time>2016-01-15T14:00:02Z</time>
      </trkpt>
      <trkpt lat="44.56625" lon="-1.17751">
        <ele>-28.44</ele>
        <time>2016-01-15T14:00:11Z</time>
      </trkpt>
      <trkpt lat="44.56645" lon="-1.17757">
        <ele>-27.78</ele>
        <time>2016-01-15T14:00:18Z</time>
      </trkpt>
      <trkpt lat="44.56683" lon="-1.17787">
        <ele>-28.72</ele>
        <time>2016-01-15T14:00:28Z</time>
      </trkpt>
      <trkpt lat="44.56699" lon="-1.1779">
        <ele>-30.04</ele>
        <time>2016-01-15T14:00:32Z</time>
      </trkpt>
      <trkpt lat="44.56709" lon="-1.17792">
        <ele>-30.32</ele>
        <time>2016-01-15T14:00:34Z</time>
      </trkpt>
      <trkpt lat="44.5676" lon="-1.17773">
        <ele>-28.57</ele>
        <time>2016-01-15T14:00:45Z</time>
      </trkpt>
      <trkpt lat="44.56791" lon="-1.17746">
        <ele>-27.82</ele>
        <time>2016-01-15T14:00:56Z</time>
      </trkpt>
      <trkpt lat="44.56799" lon="-1.17721">
        <ele>-29.3</ele>
        <time>2016-01-15T14:01:01Z</time>
      </trkpt>
      <trkpt lat="44.56803" lon="-1.17698">
        <ele>-30.04</ele>
        <time>2016-01-15T14:01:04Z</time>
      </trkpt>
      <trkpt lat="44.56807" lon="-1.17648">
        <ele>-31.4</ele>
        <time>2016-01-15T14:01:11Z</time>
      </trkpt>
      <trkpt lat="44.56813" lon="-1.17627">
        <ele>-30.98</ele>
        <time>2016-01-15T14:01:14Z</time>
      </trkpt>
      <trkpt lat="44.56822" lon="-1.17607">
        <ele>-31.13</ele>
        <time>2016-01-15T14:01:17Z</time>
      </trkpt>
      <trkpt lat="44.56828" lon="-1.17579">
        <ele>-31.16</ele>
        <time>2016-01-15T14:01:21Z</time>
      </trkpt>
      <trkpt lat="44.5683" lon="-1.17565">
        <ele>-31.52</ele>
        <time>2016-01-15T14:01:23Z</time>
      </trkpt>
      <trkpt lat="44.56838" lon="-1.17546">
        <ele>-31.38</ele>
        <time>2016-01-15T14:01:26Z</time>
      </trkpt>
      <trkpt lat="44.56862" lon="-1.17514">
        <ele>-30.62</ele>
        <time>2016-01-15T14:01:34Z</time>
      </trkpt>
      <trkpt lat="44.56866" lon="-1.17505">
        <ele>-30.07</ele>
        <time>2016-01-15T14:01:36Z</time>
      </trkpt>
      <trkpt lat="44.56882" lon="-1.17465">
        <ele>-30.5</ele>
        <time>2016-01-15T14:01:43Z</time>
      </trkpt>
      <trkpt lat="44.5689" lon="-1.17417">
        <ele>-32.03</ele>
        <time>2016-01-15T14:01:50Z</time>
      </trkpt>
      <trkpt lat="44.56889" lon="-1.17386">
        <ele>-31.46</ele>
        <time>2016-01-15T14:01:55Z</time>
      </trkpt>
      <trkpt lat="44.56886" lon="-1.17362">
        <ele>-31.2</ele>
        <time>2016-01-15T14:01:59Z</time>
      </trkpt>
      <trkpt lat="44.56904" lon="-1.17335">
        <ele>-31.92</ele>
        <time>2016-01-15T14:02:08Z</time>
      </trkpt>
      <trkpt lat="44.56936" lon="-1.1731">
        <ele>-31.53</ele>
        <time>2016-01-15T14:02:23Z</time>
      </trkpt>
      <trkpt lat="44.5696" lon="-1.17292">
        <ele>-31.66</ele>
        <time>2016-01-15T14:02:36Z</time>
      </trkpt>
      <trkpt lat="44.56983" lon="-1.17258">
        <ele>-31.67</ele>
        <time>2016-01-15T14:02:49Z</time>
      </trkpt>
      <trkpt lat="44.56999" lon="-1.17201">
        <ele>-31.12</ele>
        <time>2016-01-15T14:03:01Z</time>
      </trkpt>
      <trkpt lat="44.57002" lon="-1.17148">
        <ele>-30.53</ele>
        <time>2016-01-15T14:03:14Z</time>
      </trkpt>
      <trkpt lat="44.57002" lon="-1.17124">
        <ele>-30.06</ele>
        <time>2016-01-15T14:03:19Z</time>
      </trkpt>
      <trkpt lat="44.57014" lon="-1.17073">
        <ele>-28.18</ele>
        <time>2016-01-15T14:03:31Z</time>
      </trkpt>
      <trkpt lat="44.5702" lon="-1.17058">
        <ele>-27.28</ele>
        <time>2016-01-15T14:03:45Z</time>
      </trkpt>
      <trkpt lat="44.57024" lon="-1.1706">
        <ele>-27.52</ele>
        <time>2016-01-15T14:03:50Z</time>
      </trkpt>
      <trkpt lat="44.57028" lon="-1.17064">
        <ele>-27.82</ele>
        <time>2016-01-15T14:03:54Z</time>
      </trkpt>
      <trkpt lat="44.57049" lon="-1.17094">
        <ele>-25.41</ele>
        <time>2016-01-15T14:04:07Z</time>
      </trkpt>
      <trkpt lat="44.57061" lon="-1.17109">
        <ele>-25.17</ele>
        <time>2016-01-15T14:04:12Z</time>
      </trkpt>
      <trkpt lat="44.57071" lon="-1.17124">
        <ele>-26.15</ele>
        <time>2016-01-15T14:04:15Z</time>
      </trkpt>
      <trkpt lat="44.57077" lon="-1.17137">
        <ele>-26.8</ele>
        <time>2016-01-15T14:04:17Z</time>
      </trkpt>
      <trkpt lat="44.57085" lon="-1.1715">
        <ele>-27.96</ele>
        <time>2016-01-15T14:04:19Z</time>
      </trkpt>
      <trkpt lat="44.5712" lon="-1.17209">
        <ele>-29.14</ele>
        <time>2016-01-15T14:04:30Z</time>
      </trkpt>
      <trkpt lat="44.57133" lon="-1.17221">
        <ele>-28.57</ele>
        <time>2016-01-15T14:04:34Z</time>
      </trkpt>
      <trkpt lat="44.57145" lon="-1.17244">
        <ele>-29.51</ele>
        <time>2016-01-15T14:04:38Z</time>
      </trkpt>
      <trkpt lat="44.57164" lon="-1.1728">
        <ele>-30.2</ele>
        <time>2016-01-15T14:04:44Z</time>
      </trkpt>
      <trkpt lat="44.57169" lon="-1.17294">
        <ele>-30.26</ele>
        <time>2016-01-15T14:04:46Z</time>
      </trkpt>
      <trkpt lat="44.57201" lon="-1.1735">
        <ele>-31.89</ele>
        <time>2016-01-15T14:04:55Z</time>
      </trkpt>
      <trkpt lat="44.57207" lon="-1.17361">
        <ele>-31.89</ele>
        <time>2016-01-15T14:04:57Z</time>
      </trkpt>
      <trkpt lat="44.57246" lon="-1.17427">
        <ele>-29.49</ele>
        <time>2016-01-15T14:05:10Z</time>
      </trkpt>
      <trkpt lat="44.57279" lon="-1.17458">
        <ele>-28.56</ele>
        <time>2016-01-15T14:05:21Z</time>
      </trkpt>
      <trkpt lat="44.57322" lon="-1.17477">
        <ele>-29.13</ele>
        <time>2016-01-15T14:05:33Z</time>
      </trkpt>
      <trkpt lat="44.57365" lon="-1.17478">
        <ele>-28.18</ele>
        <time>2016-01-15T14:05:45Z</time>
      </trkpt>
      <trkpt lat="44.57392" lon="-1.1746">
        <ele>-31.07</ele>
        <time>2016-01-15T14:05:50Z</time>
      </trkpt>
      <trkpt lat="44.57415" lon="-1.17458">
        <ele>-31.02</ele>
        <time>2016-01-15T14:05:54Z</time>
      </trkpt>
      <trkpt lat="44.5748" lon="-1.17478">
        <ele>-30.73</ele>
        <time>2016-01-15T14:06:05Z</time>
      </trkpt>
      <trkpt lat="44.57517" lon="-1.17469">
        <ele>-31.49</ele>
        <time>2016-01-15T14:06:13Z</time>
      </trkpt>
      <trkpt lat="44.57526" lon="-1.17466">
        <ele>-30.83</ele>
        <time>2016-01-15T14:06:15Z</time>
      </trkpt>
      <trkpt lat="44.57568" lon="-1.17459">
        <ele>-30.18</ele>
        <time>2016-01-15T14:06:25Z</time>
      </trkpt>
      <trkpt lat="44.57609" lon="-1.17462">
        <ele>-29.79</ele>
        <time>2016-01-15T14:06:33Z</time>
      </trkpt>
      <trkpt lat="44.57627" lon="-1.17458">
        <ele>-29.88</ele>
        <time>2016-01-15T14:06:36Z</time>
      </trkpt>
      <trkpt lat="44.57641" lon="-1.1745">
        <ele>-29.71</ele>
        <time>2016-01-15T14:06:39Z</time>
      </trkpt>
      <trkpt lat="44.57684" lon="-1.1743">
        <ele>-26.68</ele>
        <time>2016-01-15T14:06:50Z</time>
      </trkpt>
      <trkpt lat="44.57695" lon="-1.17429">
        <ele>-26.04</ele>
        <time>2016-01-15T14:06:53Z</time>
      </trkpt>
      <trkpt lat="44.57748" lon="-1.17431">
        <ele>-24.29</ele>
        <time>2016-01-15T14:07:07Z</time>
      </trkpt>
      <trkpt lat="44.57784" lon="-1.17423">
        <ele>-22.76</ele>
        <time>2016-01-15T14:07:17Z</time>
      </trkpt>
      <trkpt lat="44.57821" lon="-1.17364">
        <ele>-21.78</ele>
        <time>2016-01-15T14:07:30Z</time>
      </trkpt>
      <trkpt lat="44.57837" lon="-1.17327">
        <ele>-18.6</ele>
        <time>2016-01-15T14:07:40Z</time>
      </trkpt>
      <trkpt lat="44.57846" lon="-1.17313">
        <ele>-16.7</ele>
        <time>2016-01-15T14:07:45Z</time>
      </trkpt>
      <trkpt lat="44.5787" lon="-1.17257">
        <ele>-14.62</ele>
        <time>2016-01-15T14:07:58Z</time>
      </trkpt>
      <trkpt lat="44.57896" lon="-1.17187">
        <ele>-12.28</ele>
        <time>2016-01-15T14:08:11Z</time>
      </trkpt>
      <trkpt lat="44.57905" lon="-1.17135">
        <ele>-12.3</ele>
        <time>2016-01-15T14:08:20Z</time>
      </trkpt>
      <trkpt lat="44.57905" lon="-1.17119">
        <ele>-12.97</ele>
        <time>2016-01-15T14:08:22Z</time>
      </trkpt>
      <trkpt lat="44.579" lon="-1.17082">
        <ele>-13.15</ele>
        <time>2016-01-15T14:08:27Z</time>
      </trkpt>
      <trkpt lat="44.57906" lon="-1.17035">
        <ele>-16.16</ele>
        <time>2016-01-15T14:08:33Z</time>
      </trkpt>
      <trkpt lat="44.57914" lon="-1.16998">
        <ele>-18.65</ele>
        <time>2016-01-15T14:08:37Z</time>
      </trkpt>
      <trkpt lat="44.57914" lon="-1.16966">
        <ele>-21.82</ele>
        <time>2016-01-15T14:08:41Z</time>
      </trkpt>
      <trkpt lat="44.57923" lon="-1.16927">
        <ele>-23.95</ele>
        <time>2016-01-15T14:08:47Z</time>
      </trkpt>
      <trkpt lat="44.57931" lon="-1.16882">
        <ele>-23.21</ele>
        <time>2016-01-15T14:08:59Z</time>
      </trkpt>
      <trkpt lat="44.57943" lon="-1.16889">
        <ele>-23.43</ele>
        <time>2016-01-15T14:09:06Z</time>
      </trkpt>
      <trkpt lat="44.57949" lon="-1.16903">
        <ele>-24.63</ele>
        <time>2016-01-15T14:09:09Z</time>
      </trkpt>
      <trkpt lat="44.57953" lon="-1.16916">
        <ele>-24.53</ele>
        <time>2016-01-15T14:09:11Z</time>
      </trkpt>
      <trkpt lat="44.57967" lon="-1.16949">
        <ele>-23.1</ele>
        <time>2016-01-15T14:09:16Z</time>
      </trkpt>
      <trkpt lat="44.57988" lon="-1.17005">
        <ele>-26.56</ele>
        <time>2016-01-15T14:09:24Z</time>
      </trkpt>
      <trkpt lat="44.58004" lon="-1.17048">
        <ele>-26.69</ele>
        <time>2016-01-15T14:09:29Z</time>
      </trkpt>
      <trkpt lat="44.5801" lon="-1.17063">
        <ele>-26.28</ele>
        <time>2016-01-15T14:09:31Z</time>
      </trkpt>
      <trkpt lat="44.58017" lon="-1.17085">
        <ele>-25.11</ele>
        <time>2016-01-15T14:09:34Z</time>
      </trkpt>
      <trkpt lat="44.58023" lon="-1.17114">
        <ele>-23.39</ele>
        <time>2016-01-15T14:09:38Z</time>
      </trkpt>
      <trkpt lat="44.58024" lon="-1.17128">
        <ele>-22.35</ele>
        <time>2016-01-15T14:09:40Z</time>
      </trkpt>
      <trkpt lat="44.58023" lon="-1.17191">
        <ele>-19.39</ele>
        <time>2016-01-15T14:09:53Z</time>
      </trkpt>
      <trkpt lat="44.58033" lon="-1.17247">
        <ele>-17.5</ele>
        <time>2016-01-15T14:10:04Z</time>
      </trkpt>
      <trkpt lat="44.58039" lon="-1.17338">
        <ele>-19.72</ele>
        <time>2016-01-15T14:10:17Z</time>
      </trkpt>
      <trkpt lat="44.5804" lon="-1.17357">
        <ele>-20.51</ele>
        <time>2016-01-15T14:10:19Z</time>
      </trkpt>
      <trkpt lat="44.58055" lon="-1.17432">
        <ele>-24.49</ele>
        <time>2016-01-15T14:10:25Z</time>
      </trkpt>
      <trkpt lat="44.58086" lon="-1.17536">
        <ele>-25.64</ele>
        <time>2016-01-15T14:10:34Z</time>
      </trkpt>
      <trkpt lat="44.58079" lon="-1.17618">
        <ele>-21.72</ele>
        <time>2016-01-15T14:10:43Z</time>
      </trkpt>
      <trkpt lat="44.58079" lon="-1.17627">
        <ele>-21.41</ele>
        <time>2016-01-15T14:10:44Z</time>
      </trkpt>
      <trkpt lat="44.58078" lon="-1.17645">
        <ele>-20.58</ele>
        <time>2016-01-15T14:10:46Z</time>
      </trkpt>
      <trkpt lat="44.58079" lon="-1.17662">
        <ele>-19.99</ele>
        <time>2016-01-15T14:10:48Z</time>
      </trkpt>
      <trkpt lat="44.58088" lon="-1.17737">
        <ele>-16.92</ele>
        <time>2016-01-15T14:10:57Z</time>
      </trkpt>
      <trkpt lat="44.58097" lon="-1.17787">
        <ele>-15.51</ele>
        <time>2016-01-15T14:11:04Z</time>
      </trkpt>
      <trkpt lat="44.58103" lon="-1.17855">
        <ele>-15.39</ele>
        <time>2016-01-15T14:11:14Z</time>
      </trkpt>
      <trkpt lat="44.58098" lon="-1.17954">
        <ele>-15.24</ele>
        <time>2016-01-15T14:11:27Z</time>
      </trkpt>
      <trkpt lat="44.58098" lon="-1.17963">
        <ele>-15.37</ele>
        <time>2016-01-15T14:11:28Z</time>
      </trkpt>
      <trkpt lat="44.58099" lon="-1.17981">
        <ele>-15.98</ele>
        <time>2016-01-15T14:11:30Z</time>
      </trkpt>
      <trkpt lat="44.58103" lon="-1.18011">
        <ele>-17.22</ele>
        <time>2016-01-15T14:11:33Z</time>
      </trkpt>
      <trkpt lat="44.58116" lon="-1.18084">
        <ele>-20.55</ele>
        <time>2016-01-15T14:11:40Z</time>
      </trkpt>
      <trkpt lat="44.5812" lon="-1.18107">
        <ele>-21.66</ele>
        <time>2016-01-15T14:11:42Z</time>
      </trkpt>
      <trkpt lat="44.58132" lon="-1.18196">
        <ele>-25.48</ele>
        <time>2016-01-15T14:11:49Z</time>
      </trkpt>
      <trkpt lat="44.58141" lon="-1.18261">
        <ele>-28.98</ele>
        <time>2016-01-15T14:11:54Z</time>
      </trkpt>
      <trkpt lat="44.58142" lon="-1.18299">
        <ele>-30.28</ele>
        <time>2016-01-15T14:11:57Z</time>
      </trkpt>
      <trkpt lat="44.5814" lon="-1.18347">
        <ele>-30.77</ele>
        <time>2016-01-15T14:12:01Z</time>
      </trkpt>
      <trkpt lat="44.58159" lon="-1.18391">
        <ele>-31.26</ele>
        <time>2016-01-15T14:12:08Z</time>
      </trkpt>
      <trkpt lat="44.58165" lon="-1.18388">
        <ele>-30.95</ele>
        <time>2016-01-15T14:12:10Z</time>
      </trkpt>
      <trkpt lat="44.58168" lon="-1.18385">
        <ele>-30.32</ele>
        <time>2016-01-15T14:12:21Z</time>
      </trkpt>
      <trkpt lat="44.58174" lon="-1.18384">
        <ele>-30.46</ele>
        <time>2016-01-15T14:12:38Z</time>
      </trkpt>
      <trkpt lat="44.58175" lon="-1.18385">
        <ele>-30.56</ele>
        <time>2016-01-15T14:13:06Z</time>
      </trkpt>
      <trkpt lat="44.58177" lon="-1.18386">
        <ele>-30.44</ele>
        <time>2016-01-15T14:13:11Z</time>
      </trkpt>
      <trkpt lat="44.58184" lon="-1.18383">
        <ele>-30.26</ele>
        <time>2016-01-15T14:13:22Z</time>
      </trkpt>
      <trkpt lat="44.5819" lon="-1.18386">
        <ele>-30.86</ele>
        <time>2016-01-15T14:14:22Z</time>
      </trkpt>
      <trkpt lat="44.58211" lon="-1.18367">
        <ele>-32.11</ele>
        <time>2016-01-15T14:14:35Z</time>
      </trkpt>
      <trkpt lat="44.58247" lon="-1.18342">
        <ele>-33.86</ele>
        <time>2016-01-15T14:14:46Z</time>
      </trkpt>
      <trkpt lat="44.58259" lon="-1.18324">
        <ele>-33.71</ele>
        <time>2016-01-15T14:14:50Z</time>
      </trkpt>
      <trkpt lat="44.58279" lon="-1.18313">
        <ele>-33.06</ele>
        <time>2016-01-15T14:14:55Z</time>
      </trkpt>
      <trkpt lat="44.583" lon="-1.18265">
        <ele>-33.81</ele>
        <time>2016-01-15T14:15:07Z</time>
      </trkpt>
      <trkpt lat="44.58293" lon="-1.18221">
        <ele>-33.37</ele>
        <time>2016-01-15T14:15:17Z</time>
      </trkpt>
      <trkpt lat="44.58293" lon="-1.1818">
        <ele>-33.09</ele>
        <time>2016-01-15T14:15:27Z</time>
      </trkpt>
      <trkpt lat="44.58297" lon="-1.18172">
        <ele>-33.08</ele>
        <time>2016-01-15T14:15:29Z</time>
      </trkpt>
      <trkpt lat="44.58309" lon="-1.18139">
        <ele>-32.84</ele>
        <time>2016-01-15T14:15:35Z</time>
      </trkpt>
      <trkpt lat="44.58321" lon="-1.18113">
        <ele>-32.46</ele>
        <time>2016-01-15T14:15:40Z</time>
      </trkpt>
      <trkpt lat="44.58337" lon="-1.18095">
        <ele>-32.31</ele>
        <time>2016-01-15T14:15:44Z</time>
      </trkpt>
      <trkpt lat="44.5835" lon="-1.18029">
        <ele>-30.01</ele>
        <time>2016-01-15T14:15:56Z</time>
      </trkpt>
      <trkpt lat="44.58347" lon="-1.1798">
        <ele>-27.12</ele>
        <time>2016-01-15T14:16:07Z</time>
      </trkpt>
      <trkpt lat="44.58347" lon="-1.17935">
        <ele>-25.88</ele>
        <time>2016-01-15T14:16:18Z</time>
      </trkpt>
      <trkpt lat="44.58347" lon="-1.17874">
        <ele>-24.33</ele>
        <time>2016-01-15T14:16:31Z</time>
      </trkpt>
      <trkpt lat="44.58337" lon="-1.17831">
        <ele>-21.07</ele>
        <time>2016-01-15T14:16:44Z</time>
      </trkpt>
      <trkpt lat="44.58331" lon="-1.17783">
        <ele>-17.92</ele>
        <time>2016-01-15T14:16:58Z</time>
      </trkpt>
      <trkpt lat="44.58336" lon="-1.17732">
        <ele>-18.57</ele>
        <time>2016-01-15T14:17:08Z</time>
      </trkpt>
      <trkpt lat="44.58336" lon="-1.17725">
        <ele>-18.51</ele>
        <time>2016-01-15T14:17:09Z</time>
      </trkpt>
      <trkpt lat="44.58335" lon="-1.17699">
        <ele>-18.42</ele>
        <time>2016-01-15T14:17:13Z</time>
      </trkpt>
      <trkpt lat="44.5834" lon="-1.17665">
        <ele>-18.09</ele>
        <time>2016-01-15T14:17:18Z</time>
      </trkpt>
      <trkpt lat="44.58338" lon="-1.17605">
        <ele>-18.46</ele>
        <time>2016-01-15T14:17:27Z</time>
      </trkpt>
      <trkpt lat="44.58334" lon="-1.17591">
        <ele>-19.18</ele>
        <time>2016-01-15T14:17:29Z</time>
      </trkpt>
      <trkpt lat="44.58327" lon="-1.17575">
        <ele>-20.3</ele>
        <time>2016-01-15T14:17:31Z</time>
      </trkpt>
      <trkpt lat="44.58325" lon="-1.17538">
        <ele>-21.99</ele>
        <time>2016-01-15T14:17:35Z</time>
      </trkpt>
      <trkpt lat="44.58327" lon="-1.17499">
        <ele>-24.43</ele>
        <time>2016-01-15T14:17:39Z</time>
      </trkpt>
      <trkpt lat="44.58332" lon="-1.17466">
        <ele>-24.91</ele>
        <time>2016-01-15T14:17:43Z</time>
      </trkpt>
      <trkpt lat="44.58359" lon="-1.17396">
        <ele>-23.8</ele>
        <time>2016-01-15T14:17:54Z</time>
      </trkpt>
      <trkpt lat="44.58381" lon="-1.17362">
        <ele>-20.3</ele>
        <time>2016-01-15T14:18:04Z</time>
      </trkpt>
      <trkpt lat="44.58405" lon="-1.17336">
        <ele>-17.29</ele>
        <time>2016-01-15T14:18:17Z</time>
      </trkpt>
      <trkpt lat="44.58424" lon="-1.17324">
        <ele>-15.61</ele>
        <time>2016-01-15T14:18:29Z</time>
      </trkpt>
      <trkpt lat="44.58431" lon="-1.1732">
        <ele>-16.43</ele>
        <time>2016-01-15T14:18:31Z</time>
      </trkpt>
      <trkpt lat="44.5845" lon="-1.1732">
        <ele>-18.19</ele>
        <time>2016-01-15T14:18:35Z</time>
      </trkpt>
      <trkpt lat="44.5846" lon="-1.17317">
        <ele>-18.79</ele>
        <time>2016-01-15T14:18:37Z</time>
      </trkpt>
      <trkpt lat="44.58505" lon="-1.17282">
        <ele>-19.48</ele>
        <time>2016-01-15T14:18:49Z</time>
      </trkpt>
      <trkpt lat="44.5852" lon="-1.17253">
        <ele>-19.44</ele>
        <time>2016-01-15T14:18:57Z</time>
      </trkpt>
      <trkpt lat="44.58532" lon="-1.17232">
        <ele>-19.35</ele>
        <time>2016-01-15T14:19:04Z</time>
      </trkpt>
      <trkpt lat="44.5855" lon="-1.17199">
        <ele>-19.19</ele>
        <time>2016-01-15T14:19:12Z</time>
      </trkpt>
      <trkpt lat="44.58566" lon="-1.1717">
        <ele>-19.66</ele>
        <time>2016-01-15T14:19:17Z</time>
      </trkpt>
      <trkpt lat="44.58575" lon="-1.17103">
        <ele>-17.75</ele>
        <time>2016-01-15T14:19:28Z</time>
      </trkpt>
      <trkpt lat="44.58584" lon="-1.17033">
        <ele>-18.16</ele>
        <time>2016-01-15T14:19:40Z</time>
      </trkpt>
      <trkpt lat="44.58588" lon="-1.16962">
        <ele>-16.1</ele>
        <time>2016-01-15T14:19:52Z</time>
      </trkpt>
      <trkpt lat="44.58592" lon="-1.16895">
        <ele>-15.98</ele>
        <time>2016-01-15T14:20:05Z</time>
      </trkpt>
      <trkpt lat="44.5861" lon="-1.16845">
        <ele>-14.84</ele>
        <time>2016-01-15T14:20:15Z</time>
      </trkpt>
      <trkpt lat="44.58627" lon="-1.16823">
        <ele>-14.73</ele>
        <time>2016-01-15T14:20:21Z</time>
      </trkpt>
      <trkpt lat="44.58665" lon="-1.16803">
        <ele>-18.07</ele>
        <time>2016-01-15T14:20:27Z</time>
      </trkpt>
      <trkpt lat="44.58686" lon="-1.16797">
        <ele>-22.02</ele>
        <time>2016-01-15T14:20:30Z</time>
      </trkpt>
      <trkpt lat="44.58698" lon="-1.16788">
        <ele>-22.85</ele>
        <time>2016-01-15T14:20:32Z</time>
      </trkpt>
      <trkpt lat="44.58706" lon="-1.16754">
        <ele>-20.19</ele>
        <time>2016-01-15T14:20:38Z</time>
      </trkpt>
      <trkpt lat="44.58702" lon="-1.16685">
        <ele>-17.98</ele>
        <time>2016-01-15T14:20:51Z</time>
      </trkpt>
      <trkpt lat="44.58696" lon="-1.16602">
        <ele>-16.65</ele>
        <time>2016-01-15T14:21:05Z</time>
      </trkpt>
      <trkpt lat="44.58693" lon="-1.16542">
        <ele>-14.93</ele>
        <time>2016-01-15T14:21:18Z</time>
      </trkpt>
      <trkpt lat="44.58691" lon="-1.16531">
        <ele>-15.11</ele>
        <time>2016-01-15T14:21:20Z</time>
      </trkpt>
      <trkpt lat="44.58681" lon="-1.165">
        <ele>-15.86</ele>
        <time>2016-01-15T14:21:25Z</time>
      </trkpt>
      <trkpt lat="44.58676" lon="-1.16487">
        <ele>-16.04</ele>
        <time>2016-01-15T14:21:27Z</time>
      </trkpt>
      <trkpt lat="44.58672" lon="-1.16458">
        <ele>-16.55</ele>
        <time>2016-01-15T14:21:31Z</time>
      </trkpt>
      <trkpt lat="44.58672" lon="-1.16442">
        <ele>-17.1</ele>
        <time>2016-01-15T14:21:33Z</time>
      </trkpt>
      <trkpt lat="44.58675" lon="-1.16402">
        <ele>-15.88</ele>
        <time>2016-01-15T14:21:38Z</time>
      </trkpt>
      <trkpt lat="44.58669" lon="-1.16327">
        <ele>-14.55</ele>
        <time>2016-01-15T14:21:49Z</time>
      </trkpt>
      <trkpt lat="44.58662" lon="-1.16252">
        <ele>-14.72</ele>
        <time>2016-01-15T14:22:01Z</time>
      </trkpt>
      <trkpt lat="44.58652" lon="-1.16228">
        <ele>-16.29</ele>
        <time>2016-01-15T14:22:05Z</time>
      </trkpt>
      <trkpt lat="44.58652" lon="-1.16227">
        <ele>-16.41</ele>
        <time>2016-01-15T14:22:10Z</time>
      </trkpt>
      <trkpt lat="44.5866" lon="-1.16233">
        <ele>-16.12</ele>
        <time>2016-01-15T14:22:21Z</time>
      </trkpt>
      <trkpt lat="44.58667" lon="-1.16227">
        <ele>-16.21</ele>
        <time>2016-01-15T14:22:28Z</time>
      </trkpt>
      <trkpt lat="44.58682" lon="-1.16224">
        <ele>-12.7</ele>
        <time>2016-01-15T14:22:38Z</time>
      </trkpt>
      <trkpt lat="44.58688" lon="-1.16221">
        <ele>-11.54</ele>
        <time>2016-01-15T14:22:44Z</time>
      </trkpt>
      <trkpt lat="44.58691" lon="-1.16219">
        <ele>-11.7</ele>
        <time>2016-01-15T14:22:48Z</time>
      </trkpt>
      <trkpt lat="44.58693" lon="-1.16211">
        <ele>-10.12</ele>
        <time>2016-01-15T14:22:54Z</time>
      </trkpt>
      <trkpt lat="44.58697" lon="-1.16202">
        <ele>-6.64</ele>
        <time>2016-01-15T14:23:04Z</time>
      </trkpt>
      <trkpt lat="44.58701" lon="-1.16196">
        <ele>-3.47</ele>
        <time>2016-01-15T14:23:14Z</time>
      </trkpt>
      <trkpt lat="44.58709" lon="-1.16195">
        <ele>-0.43</ele>
        <time>2016-01-15T14:23:24Z</time>
      </trkpt>
      <trkpt lat="44.58717" lon="-1.16193">
        <ele>1.31</ele>
        <time>2016-01-15T14:23:30Z</time>
      </trkpt>
      <trkpt lat="44.58726" lon="-1.16204">
        <ele>2.9</ele>
        <time>2016-01-15T14:23:36Z</time>
      </trkpt>
      <trkpt lat="44.5873" lon="-1.16207">
        <ele>3.56</ele>
        <time>2016-01-15T14:23:39Z</time>
      </trkpt>
      <trkpt lat="44.58741" lon="-1.16208">
        <ele>7.46</ele>
        <time>2016-01-15T14:23:50Z</time>
      </trkpt>
      <trkpt lat="44.58743" lon="-1.16208">
        <ele>8.22</ele>
        <time>2016-01-15T14:23:52Z</time>
      </trkpt>
      <trkpt lat="44.58755" lon="-1.1621">
        <ele>11.39</ele>
        <time>2016-01-15T14:24:05Z</time>
      </trkpt>
      <trkpt lat="44.58764" lon="-1.16207">
        <ele>14.54</ele>
        <time>2016-01-15T14:24:15Z</time>
      </trkpt>
      <trkpt lat="44.58772" lon="-1.16204">
        <ele>17.6</ele>
        <time>2016-01-15T14:24:24Z</time>
      </trkpt>
      <trkpt lat="44.58769" lon="-1.16202">
        <ele>18.11</ele>
        <time>2016-01-15T14:24:33Z</time>
      </trkpt>
      <trkpt lat="44.58761" lon="-1.16202">
        <ele>17.24</ele>
        <time>2016-01-15T14:24:38Z</time>
      </trkpt>
      <trkpt lat="44.58754" lon="-1.16201">
        <ele>15.08</ele>
        <time>2016-01-15T14:24:42Z</time>
      </trkpt>
      <trkpt lat="44.58748" lon="-1.16204">
        <ele>13.14</ele>
        <time>2016-01-15T14:24:46Z</time>
      </trkpt>
      <trkpt lat="44.58738" lon="-1.16205">
        <ele>9.19</ele>
        <time>2016-01-15T14:24:51Z</time>
      </trkpt>
      <trkpt lat="44.58731" lon="-1.16204">
        <ele>6.97</ele>
        <time>2016-01-15T14:24:55Z</time>
      </trkpt>
      <trkpt lat="44.5873" lon="-1.16204">
        <ele>6.45</ele>
        <time>2016-01-15T14:24:56Z</time>
      </trkpt>
      <trkpt lat="44.58719" lon="-1.16197">
        <ele>2.72</ele>
        <time>2016-01-15T14:25:01Z</time>
      </trkpt>
      <trkpt lat="44.58706" lon="-1.16195">
        <ele>1.16</ele>
        <time>2016-01-15T14:25:08Z</time>
      </trkpt>
      <trkpt lat="44.58703" lon="-1.16196">
        <ele>-1.14</ele>
        <time>2016-01-15T14:25:13Z</time>
      </trkpt>
      <trkpt lat="44.58696" lon="-1.16207">
        <ele>-4.73</ele>
        <time>2016-01-15T14:25:19Z</time>
      </trkpt>
      <trkpt lat="44.58691" lon="-1.1621">
        <ele>-7.19</ele>
        <time>2016-01-15T14:25:22Z</time>
      </trkpt>
      <trkpt lat="44.5869" lon="-1.16218">
        <ele>-11</ele>
        <time>2016-01-15T14:25:28Z</time>
      </trkpt>
      <trkpt lat="44.58691" lon="-1.16218">
        <ele>-11.51</ele>
        <time>2016-01-15T14:25:39Z</time>
      </trkpt>
      <trkpt lat="44.58688" lon="-1.16221">
        <ele>-11.68</ele>
        <time>2016-01-15T14:25:43Z</time>
      </trkpt>
      <trkpt lat="44.58677" lon="-1.16224">
        <ele>-15.5</ele>
        <time>2016-01-15T14:25:48Z</time>
      </trkpt>
      <trkpt lat="44.58669" lon="-1.16228">
        <ele>-16.89</ele>
        <time>2016-01-15T14:25:51Z</time>
      </trkpt>
      <trkpt lat="44.58661" lon="-1.16227">
        <ele>-15.96</ele>
        <time>2016-01-15T14:25:55Z</time>
      </trkpt>
      <trkpt lat="44.58626" lon="-1.16195">
        <ele>-19.38</ele>
        <time>2016-01-15T14:26:06Z</time>
      </trkpt>
      <trkpt lat="44.58606" lon="-1.16185">
        <ele>-21.18</ele>
        <time>2016-01-15T14:26:18Z</time>
      </trkpt>
      <trkpt lat="44.58582" lon="-1.16212">
        <ele>-22.68</ele>
        <time>2016-01-15T14:26:29Z</time>
      </trkpt>
      <trkpt lat="44.58567" lon="-1.16236">
        <ele>-19.58</ele>
        <time>2016-01-15T14:26:39Z</time>
      </trkpt>
      <trkpt lat="44.58564" lon="-1.16238">
        <ele>-19.51</ele>
        <time>2016-01-15T14:26:43Z</time>
      </trkpt>
      <trkpt lat="44.58558" lon="-1.16245">
        <ele>-18.57</ele>
        <time>2016-01-15T14:26:47Z</time>
      </trkpt>
      <trkpt lat="44.5855" lon="-1.16254">
        <ele>-17.31</ele>
        <time>2016-01-15T14:26:52Z</time>
      </trkpt>
      <trkpt lat="44.58528" lon="-1.16239">
        <ele>-14.79</ele>
        <time>2016-01-15T14:27:05Z</time>
      </trkpt>
      <trkpt lat="44.58499" lon="-1.16235">
        <ele>-13.59</ele>
        <time>2016-01-15T14:27:17Z</time>
      </trkpt>
      <trkpt lat="44.58482" lon="-1.16242">
        <ele>-15.97</ele>
        <time>2016-01-15T14:27:21Z</time>
      </trkpt>
      <trkpt lat="44.58459" lon="-1.16238">
        <ele>-18.25</ele>
        <time>2016-01-15T14:27:27Z</time>
      </trkpt>
      <trkpt lat="44.58444" lon="-1.16221">
        <ele>-19.82</ele>
        <time>2016-01-15T14:27:31Z</time>
      </trkpt>
      <trkpt lat="44.5842" lon="-1.16189">
        <ele>-18.82</ele>
        <time>2016-01-15T14:27:40Z</time>
      </trkpt>
      <trkpt lat="44.58397" lon="-1.16159">
        <ele>-19.88</ele>
        <time>2016-01-15T14:27:46Z</time>
      </trkpt>
      <trkpt lat="44.58382" lon="-1.16127">
        <ele>-20.21</ele>
        <time>2016-01-15T14:27:52Z</time>
      </trkpt>
      <trkpt lat="44.58365" lon="-1.16107">
        <ele>-18.1</ele>
        <time>2016-01-15T14:27:58Z</time>
      </trkpt>
      <trkpt lat="44.58358" lon="-1.16098">
        <ele>-17.52</ele>
        <time>2016-01-15T14:28:00Z</time>
      </trkpt>
      <trkpt lat="44.58336" lon="-1.16061">
        <ele>-18.66</ele>
        <time>2016-01-15T14:28:07Z</time>
      </trkpt>
      <trkpt lat="44.58306" lon="-1.1604">
        <ele>-22.95</ele>
        <time>2016-01-15T14:28:12Z</time>
      </trkpt>
      <trkpt lat="44.58287" lon="-1.16024">
        <ele>-26.75</ele>
        <time>2016-01-15T14:28:15Z</time>
      </trkpt>
      <trkpt lat="44.58269" lon="-1.16015">
        <ele>-30.21</ele>
        <time>2016-01-15T14:28:18Z</time>
      </trkpt>
      <trkpt lat="44.58242" lon="-1.1602">
        <ele>-33.1</ele>
        <time>2016-01-15T14:28:21Z</time>
      </trkpt>
      <trkpt lat="44.58203" lon="-1.16037">
        <ele>-34.36</ele>
        <time>2016-01-15T14:28:24Z</time>
      </trkpt>
      <trkpt lat="44.58148" lon="-1.16088">
        <ele>-33.82</ele>
        <time>2016-01-15T14:28:33Z</time>
      </trkpt>
      <trkpt lat="44.58137" lon="-1.16093">
        <ele>-33.15</ele>
        <time>2016-01-15T14:28:35Z</time>
      </trkpt>
      <trkpt lat="44.58086" lon="-1.16092">
        <ele>-30.25</ele>
        <time>2016-01-15T14:28:47Z</time>
      </trkpt>
      <trkpt lat="44.58038" lon="-1.16087">
        <ele>-33.07</ele>
        <time>2016-01-15T14:28:56Z</time>
      </trkpt>
      <trkpt lat="44.57957" lon="-1.16127">
        <ele>-35.01</ele>
        <time>2016-01-15T14:29:08Z</time>
      </trkpt>
      <trkpt lat="44.57904" lon="-1.16172">
        <ele>-34.71</ele>
        <time>2016-01-15T14:29:19Z</time>
      </trkpt>
      <trkpt lat="44.57862" lon="-1.16191">
        <ele>-32.25</ele>
        <time>2016-01-15T14:29:28Z</time>
      </trkpt>
      <trkpt lat="44.57849" lon="-1.16203">
        <ele>-31.52</ele>
        <time>2016-01-15T14:29:32Z</time>
      </trkpt>
      <trkpt lat="44.57801" lon="-1.16243">
        <ele>-30.96</ele>
        <time>2016-01-15T14:29:44Z</time>
      </trkpt>
      <trkpt lat="44.57783" lon="-1.16252">
        <ele>-31.44</ele>
        <time>2016-01-15T14:29:47Z</time>
      </trkpt>
      <trkpt lat="44.57768" lon="-1.1626">
        <ele>-32.91</ele>
        <time>2016-01-15T14:29:50Z</time>
      </trkpt>
      <trkpt lat="44.57713" lon="-1.16272">
        <ele>-34.64</ele>
        <time>2016-01-15T14:29:58Z</time>
      </trkpt>
      <trkpt lat="44.57697" lon="-1.16282">
        <ele>-34.69</ele>
        <time>2016-01-15T14:30:01Z</time>
      </trkpt>
      <trkpt lat="44.5767" lon="-1.16276">
        <ele>-34.71</ele>
        <time>2016-01-15T14:30:06Z</time>
      </trkpt>
      <trkpt lat="44.57658" lon="-1.16271">
        <ele>-34.96</ele>
        <time>2016-01-15T14:30:08Z</time>
      </trkpt>
      <trkpt lat="44.57636" lon="-1.16263">
        <ele>-34.71</ele>
        <time>2016-01-15T14:30:12Z</time>
      </trkpt>
      <trkpt lat="44.57616" lon="-1.16263">
        <ele>-34.63</ele>
        <time>2016-01-15T14:30:16Z</time>
      </trkpt>
      <trkpt lat="44.57596" lon="-1.16268">
        <ele>-34.43</ele>
        <time>2016-01-15T14:30:20Z</time>
      </trkpt>
      <trkpt lat="44.57578" lon="-1.16272">
        <ele>-35.16</ele>
        <time>2016-01-15T14:30:23Z</time>
      </trkpt>
      <trkpt lat="44.57558" lon="-1.16284">
        <ele>-35.43</ele>
        <time>2016-01-15T14:30:27Z</time>
      </trkpt>
      <trkpt lat="44.57548" lon="-1.16293">
        <ele>-35.15</ele>
        <time>2016-01-15T14:30:29Z</time>
      </trkpt>
      <trkpt lat="44.57532" lon="-1.16304">
        <ele>-34.83</ele>
        <time>2016-01-15T14:30:32Z</time>
      </trkpt>
      <trkpt lat="44.57485" lon="-1.16329">
        <ele>-32.78</ele>
        <time>2016-01-15T14:30:45Z</time>
      </trkpt>
      <trkpt lat="44.57462" lon="-1.16325">
        <ele>-29.64</ele>
        <time>2016-01-15T14:30:56Z</time>
      </trkpt>
      <trkpt lat="44.57461" lon="-1.16324">
        <ele>-29.4</ele>
        <time>2016-01-15T14:30:57Z</time>
      </trkpt>
      <trkpt lat="44.57458" lon="-1.16314">
        <ele>-26.49</ele>
        <time>2016-01-15T14:31:05Z</time>
      </trkpt>
      <trkpt lat="44.57442" lon="-1.16286">
        <ele>-26.64</ele>
        <time>2016-01-15T14:31:14Z</time>
      </trkpt>
      <trkpt lat="44.57402" lon="-1.16239">
        <ele>-30.85</ele>
        <time>2016-01-15T14:31:21Z</time>
      </trkpt>
      <trkpt lat="44.57389" lon="-1.1622">
        <ele>-30.94</ele>
        <time>2016-01-15T14:31:24Z</time>
      </trkpt>
      <trkpt lat="44.57372" lon="-1.162">
        <ele>-31.22</ele>
        <time>2016-01-15T14:31:28Z</time>
      </trkpt>
      <trkpt lat="44.57357" lon="-1.16183">
        <ele>-32.77</ele>
        <time>2016-01-15T14:31:31Z</time>
      </trkpt>
      <trkpt lat="44.5734" lon="-1.16168">
        <ele>-34.11</ele>
        <time>2016-01-15T14:31:34Z</time>
      </trkpt>
      <trkpt lat="44.57335" lon="-1.16165">
        <ele>-34.09</ele>
        <time>2016-01-15T14:31:35Z</time>
      </trkpt>
      <trkpt lat="44.57314" lon="-1.16156">
        <ele>-34.25</ele>
        <time>2016-01-15T14:31:39Z</time>
      </trkpt>
      <trkpt lat="44.57291" lon="-1.16155">
        <ele>-35.04</ele>
        <time>2016-01-15T14:31:42Z</time>
      </trkpt>
      <trkpt lat="44.57248" lon="-1.16151">
        <ele>-35.57</ele>
        <time>2016-01-15T14:31:47Z</time>
      </trkpt>
      <trkpt lat="44.57229" lon="-1.16143">
        <ele>-34.33</ele>
        <time>2016-01-15T14:31:50Z</time>
      </trkpt>
      <trkpt lat="44.5718" lon="-1.16115">
        <ele>-32.45</ele>
        <time>2016-01-15T14:32:02Z</time>
      </trkpt>
      <trkpt lat="44.57154" lon="-1.16103">
        <ele>-33.64</ele>
        <time>2016-01-15T14:32:07Z</time>
      </trkpt>
      <trkpt lat="44.57129" lon="-1.16086">
        <ele>-35.5</ele>
        <time>2016-01-15T14:32:11Z</time>
      </trkpt>
      <trkpt lat="44.57112" lon="-1.16074">
        <ele>-35.39</ele>
        <time>2016-01-15T14:32:14Z</time>
      </trkpt>
      <trkpt lat="44.57053" lon="-1.16048">
        <ele>-36.15</ele>
        <time>2016-01-15T14:32:24Z</time>
      </trkpt>
      <trkpt lat="44.57033" lon="-1.16047">
        <ele>-35.2</ele>
        <time>2016-01-15T14:32:28Z</time>
      </trkpt>
      <trkpt lat="44.57017" lon="-1.16002">
        <ele>-36.08</ele>
        <time>2016-01-15T14:32:37Z</time>
      </trkpt>
      <trkpt lat="44.57023" lon="-1.15971">
        <ele>-36.54</ele>
        <time>2016-01-15T14:32:42Z</time>
      </trkpt>
      <trkpt lat="44.57027" lon="-1.15886">
        <ele>-35.65</ele>
        <time>2016-01-15T14:32:55Z</time>
      </trkpt>
      <trkpt lat="44.57001" lon="-1.15866">
        <ele>-35.97</ele>
        <time>2016-01-15T14:33:03Z</time>
      </trkpt>
      <trkpt lat="44.56978" lon="-1.15874">
        <ele>-35.94</ele>
        <time>2016-01-15T14:33:06Z</time>
      </trkpt>
      <trkpt lat="44.56963" lon="-1.15884">
        <ele>-35.84</ele>
        <time>2016-01-15T14:33:09Z</time>
      </trkpt>
      <trkpt lat="44.56954" lon="-1.15893">
        <ele>-35.61</ele>
        <time>2016-01-15T14:33:11Z</time>
      </trkpt>
      <trkpt lat="44.56948" lon="-1.15905">
        <ele>-35.3</ele>
        <time>2016-01-15T14:33:13Z</time>
      </trkpt>
      <trkpt lat="44.5693" lon="-1.15926">
        <ele>-35.25</ele>
        <time>2016-01-15T14:33:17Z</time>
      </trkpt>
      <trkpt lat="44.56907" lon="-1.15939">
        <ele>-35.38</ele>
        <time>2016-01-15T14:33:21Z</time>
      </trkpt>
      <trkpt lat="44.5689" lon="-1.15945">
        <ele>-35.82</ele>
        <time>2016-01-15T14:33:24Z</time>
      </trkpt>
      <trkpt lat="44.5685" lon="-1.15986">
        <ele>-35.79</ele>
        <time>2016-01-15T14:33:33Z</time>
      </trkpt>
      <trkpt lat="44.56826" lon="-1.16031">
        <ele>-35.57</ele>
        <time>2016-01-15T14:33:41Z</time>
      </trkpt>
      <trkpt lat="44.56789" lon="-1.16049">
        <ele>-36.07</ele>
        <time>2016-01-15T14:33:48Z</time>
      </trkpt>
      <trkpt lat="44.5678" lon="-1.16055">
        <ele>-35.94</ele>
        <time>2016-01-15T14:33:50Z</time>
      </trkpt>
      <trkpt lat="44.56767" lon="-1.16069">
        <ele>-36.36</ele>
        <time>2016-01-15T14:33:54Z</time>
      </trkpt>
      <trkpt lat="44.56764" lon="-1.16065">
        <ele>-35.9</ele>
        <time>2016-01-15T14:34:01Z</time>
      </trkpt>
      <trkpt lat="44.56802" lon="-1.16052">
        <ele>-36.32</ele>
        <time>2016-01-15T14:34:12Z</time>
      </trkpt>
      <trkpt lat="44.5681" lon="-1.16048">
        <ele>-36.36</ele>
        <time>2016-01-15T14:34:14Z</time>
      </trkpt>
      <trkpt lat="44.56846" lon="-1.15999">
        <ele>-35.9</ele>
        <time>2016-01-15T14:34:23Z</time>
      </trkpt>
      <trkpt lat="44.56857" lon="-1.15979">
        <ele>-35.96</ele>
        <time>2016-01-15T14:34:26Z</time>
      </trkpt>
      <trkpt lat="44.56892" lon="-1.15955">
        <ele>-35.53</ele>
        <time>2016-01-15T14:34:32Z</time>
      </trkpt>
      <trkpt lat="44.56909" lon="-1.15945">
        <ele>-35.35</ele>
        <time>2016-01-15T14:34:35Z</time>
      </trkpt>
      <trkpt lat="44.5694" lon="-1.15921">
        <ele>-35.15</ele>
        <time>2016-01-15T14:34:41Z</time>
      </trkpt>
      <trkpt lat="44.56962" lon="-1.15888">
        <ele>-35.25</ele>
        <time>2016-01-15T14:34:46Z</time>
      </trkpt>
      <trkpt lat="44.56998" lon="-1.15859">
        <ele>-35.78</ele>
        <time>2016-01-15T14:34:52Z</time>
      </trkpt>
      <trkpt lat="44.57027" lon="-1.1582">
        <ele>-36.06</ele>
        <time>2016-01-15T14:34:58Z</time>
      </trkpt>
      <trkpt lat="44.57034" lon="-1.15779">
        <ele>-35.95</ele>
        <time>2016-01-15T14:35:03Z</time>
      </trkpt>
      <trkpt lat="44.57041" lon="-1.15666">
        <ele>-34.42</ele>
        <time>2016-01-15T14:35:18Z</time>
      </trkpt>
      <trkpt lat="44.57044" lon="-1.1564">
        <ele>-34.3</ele>
        <time>2016-01-15T14:35:21Z</time>
      </trkpt>
      <trkpt lat="44.57054" lon="-1.1552">
        <ele>-35.08</ele>
        <time>2016-01-15T14:35:34Z</time>
      </trkpt>
      <trkpt lat="44.57069" lon="-1.15449">
        <ele>-38.91</ele>
        <time>2016-01-15T14:35:41Z</time>
      </trkpt>
      <trkpt lat="44.57083" lon="-1.15339">
        <ele>-37.77</ele>
        <time>2016-01-15T14:35:52Z</time>
      </trkpt>
      <trkpt lat="44.57085" lon="-1.15253">
        <ele>-38.55</ele>
        <time>2016-01-15T14:36:03Z</time>
      </trkpt>
      <trkpt lat="44.57086" lon="-1.15228">
        <ele>-38.55</ele>
        <time>2016-01-15T14:36:06Z</time>
      </trkpt>
      <trkpt lat="44.57094" lon="-1.15178">
        <ele>-38.85</ele>
        <time>2016-01-15T14:36:12Z</time>
      </trkpt>
      <trkpt lat="44.57095" lon="-1.15162">
        <ele>-39.07</ele>
        <time>2016-01-15T14:36:14Z</time>
      </trkpt>
      <trkpt lat="44.57101" lon="-1.1514">
        <ele>-38.77</ele>
        <time>2016-01-15T14:36:17Z</time>
      </trkpt>
      <trkpt lat="44.57135" lon="-1.15122">
        <ele>-38.24</ele>
        <time>2016-01-15T14:36:24Z</time>
      </trkpt>
      <trkpt lat="44.57149" lon="-1.15123">
        <ele>-38.31</ele>
        <time>2016-01-15T14:36:27Z</time>
      </trkpt>
      <trkpt lat="44.57164" lon="-1.1513">
        <ele>-38.06</ele>
        <time>2016-01-15T14:36:30Z</time>
      </trkpt>
      <trkpt lat="44.57233" lon="-1.15144">
        <ele>-38.4</ele>
        <time>2016-01-15T14:36:43Z</time>
      </trkpt>
      <trkpt lat="44.57253" lon="-1.15148">
        <ele>-38.12</ele>
        <time>2016-01-15T14:36:47Z</time>
      </trkpt>
      <trkpt lat="44.57273" lon="-1.15156">
        <ele>-38.11</ele>
        <time>2016-01-15T14:36:51Z</time>
      </trkpt>
      <trkpt lat="44.57368" lon="-1.15173">
        <ele>-38.73</ele>
        <time>2016-01-15T14:37:05Z</time>
      </trkpt>
      <trkpt lat="44.57441" lon="-1.15188">
        <ele>-39.42</ele>
        <time>2016-01-15T14:37:15Z</time>
      </trkpt>
      <trkpt lat="44.57509" lon="-1.15204">
        <ele>-39.6</ele>
        <time>2016-01-15T14:37:25Z</time>
      </trkpt>
      <trkpt lat="44.57555" lon="-1.15216">
        <ele>-40.5</ele>
        <time>2016-01-15T14:37:33Z</time>
      </trkpt>
      <trkpt lat="44.57609" lon="-1.15234">
        <ele>-40.34</ele>
        <time>2016-01-15T14:37:43Z</time>
      </trkpt>
      <trkpt lat="44.57647" lon="-1.15239">
        <ele>-40.3</ele>
        <time>2016-01-15T14:37:50Z</time>
      </trkpt>
      <trkpt lat="44.57661" lon="-1.15214">
        <ele>-40.17</ele>
        <time>2016-01-15T14:37:55Z</time>
      </trkpt>
      <trkpt lat="44.57665" lon="-1.15197">
        <ele>-40.22</ele>
        <time>2016-01-15T14:37:57Z</time>
      </trkpt>
      <trkpt lat="44.57717" lon="-1.15057">
        <ele>-39.94</ele>
        <time>2016-01-15T14:38:12Z</time>
      </trkpt>
      <trkpt lat="44.57765" lon="-1.14946">
        <ele>-39.7</ele>
        <time>2016-01-15T14:38:24Z</time>
      </trkpt>
      <trkpt lat="44.57803" lon="-1.14829">
        <ele>-40.46</ele>
        <time>2016-01-15T14:38:36Z</time>
      </trkpt>
      <trkpt lat="44.57804" lon="-1.14819">
        <ele>-40.61</ele>
        <time>2016-01-15T14:38:37Z</time>
      </trkpt>
      <trkpt lat="44.57808" lon="-1.14652">
        <ele>-40.73</ele>
        <time>2016-01-15T14:38:53Z</time>
      </trkpt>
      <trkpt lat="44.57805" lon="-1.14523">
        <ele>-41.65</ele>
        <time>2016-01-15T14:39:05Z</time>
      </trkpt>
      <trkpt lat="44.57803" lon="-1.14395">
        <ele>-42.2</ele>
        <time>2016-01-15T14:39:18Z</time>
      </trkpt>
      <trkpt lat="44.57805" lon="-1.14314">
        <ele>-42.35</ele>
        <time>2016-01-15T14:39:27Z</time>
      </trkpt>
      <trkpt lat="44.5783" lon="-1.14275">
        <ele>-41.69</ele>
        <time>2016-01-15T14:39:34Z</time>
      </trkpt>
      <trkpt lat="44.57917" lon="-1.14225">
        <ele>-41.8</ele>
        <time>2016-01-15T14:39:49Z</time>
      </trkpt>
      <trkpt lat="44.57988" lon="-1.14191">
        <ele>-41.64</ele>
        <time>2016-01-15T14:40:00Z</time>
      </trkpt>
      <trkpt lat="44.58075" lon="-1.14148">
        <ele>-42.77</ele>
        <time>2016-01-15T14:40:14Z</time>
      </trkpt>
      <trkpt lat="44.58169" lon="-1.141">
        <ele>-43.13</ele>
        <time>2016-01-15T14:40:28Z</time>
      </trkpt>
      <trkpt lat="44.5827" lon="-1.14035">
        <ele>-43.85</ele>
        <time>2016-01-15T14:40:43Z</time>
      </trkpt>
      <trkpt lat="44.58307" lon="-1.14011">
        <ele>-45.31</ele>
        <time>2016-01-15T14:40:49Z</time>
      </trkpt>
      <trkpt lat="44.58404" lon="-1.13958">
        <ele>-45.72</ele>
        <time>2016-01-15T14:41:05Z</time>
      </trkpt>
      <trkpt lat="44.58489" lon="-1.13915">
        <ele>-43.58</ele>
        <time>2016-01-15T14:41:20Z</time>
      </trkpt>
      <trkpt lat="44.58549" lon="-1.13886">
        <ele>-46.35</ele>
        <time>2016-01-15T14:41:32Z</time>
      </trkpt>
      <trkpt lat="44.58561" lon="-1.13848">
        <ele>-46.05</ele>
        <time>2016-01-15T14:41:39Z</time>
      </trkpt>
      <trkpt lat="44.58577" lon="-1.13827">
        <ele>-45.49</ele>
        <time>2016-01-15T14:41:44Z</time>
      </trkpt>
      <trkpt lat="44.58599" lon="-1.13818">
        <ele>-46.45</ele>
        <time>2016-01-15T14:41:48Z</time>
      </trkpt>
      <trkpt lat="44.58616" lon="-1.13807">
        <ele>-46.22</ele>
        <time>2016-01-15T14:41:51Z</time>
      </trkpt>
      <trkpt lat="44.58643" lon="-1.13768">
        <ele>-46.27</ele>
        <time>2016-01-15T14:41:57Z</time>
      </trkpt>
      <trkpt lat="44.58694" lon="-1.13704">
        <ele>-46.62</ele>
        <time>2016-01-15T14:42:08Z</time>
      </trkpt>
      <trkpt lat="44.58754" lon="-1.1359">
        <ele>-47.05</ele>
        <time>2016-01-15T14:42:22Z</time>
      </trkpt>
      <trkpt lat="44.58759" lon="-1.13582">
        <ele>-47.19</ele>
        <time>2016-01-15T14:42:23Z</time>
      </trkpt>
      <trkpt lat="44.58784" lon="-1.13523">
        <ele>-47.79</ele>
        <time>2016-01-15T14:42:30Z</time>
      </trkpt>
      <trkpt lat="44.58817" lon="-1.13467">
        <ele>-47.29</ele>
        <time>2016-01-15T14:42:38Z</time>
      </trkpt>
      <trkpt lat="44.58835" lon="-1.13438">
        <ele>-47.23</ele>
        <time>2016-01-15T14:42:42Z</time>
      </trkpt>
      <trkpt lat="44.58865" lon="-1.13389">
        <ele>-47.48</ele>
        <time>2016-01-15T14:42:49Z</time>
      </trkpt>
      <trkpt lat="44.5891" lon="-1.1329">
        <ele>-47.9</ele>
        <time>2016-01-15T14:43:01Z</time>
      </trkpt>
      <trkpt lat="44.5892" lon="-1.13274">
        <ele>-47.68</ele>
        <time>2016-01-15T14:43:03Z</time>
      </trkpt>
      <trkpt lat="44.58988" lon="-1.13201">
        <ele>-47.79</ele>
        <time>2016-01-15T14:43:15Z</time>
      </trkpt>
      <trkpt lat="44.59053" lon="-1.13142">
        <ele>-48.17</ele>
        <time>2016-01-15T14:43:27Z</time>
      </trkpt>
      <trkpt lat="44.59113" lon="-1.13087">
        <ele>-48.71</ele>
        <time>2016-01-15T14:43:40Z</time>
      </trkpt>
      <trkpt lat="44.59185" lon="-1.13059">
        <ele>-48.08</ele>
        <time>2016-01-15T14:43:53Z</time>
      </trkpt>
      <trkpt lat="44.59256" lon="-1.13024">
        <ele>-48.68</ele>
        <time>2016-01-15T14:44:04Z</time>
      </trkpt>
      <trkpt lat="44.59347" lon="-1.13013">
        <ele>-48.17</ele>
        <time>2016-01-15T14:44:17Z</time>
      </trkpt>
      <trkpt lat="44.59368" lon="-1.13011">
        <ele>-48.25</ele>
        <time>2016-01-15T14:44:20Z</time>
      </trkpt>
      <trkpt lat="44.59447" lon="-1.13007">
        <ele>-48.92</ele>
        <time>2016-01-15T14:44:33Z</time>
      </trkpt>
      <trkpt lat="44.59454" lon="-1.13007">
        <ele>-48.86</ele>
        <time>2016-01-15T14:44:34Z</time>
      </trkpt>
      <trkpt lat="44.59513" lon="-1.13014">
        <ele>-49.05</ele>
        <time>2016-01-15T14:44:44Z</time>
      </trkpt>
      <trkpt lat="44.59529" lon="-1.13014">
        <ele>-49.54</ele>
        <time>2016-01-15T14:44:47Z</time>
      </trkpt>
      <trkpt lat="44.59544" lon="-1.13048">
        <ele>-49.24</ele>
        <time>2016-01-15T14:44:55Z</time>
      </trkpt>
      <trkpt lat="44.59543" lon="-1.13054">
        <ele>-49.18</ele>
        <time>2016-01-15T14:44:56Z</time>
      </trkpt>
      <trkpt lat="44.59541" lon="-1.13067">
        <ele>-49.06</ele>
        <time>2016-01-15T14:44:58Z</time>
      </trkpt>
      <trkpt lat="44.5954" lon="-1.13105">
        <ele>-49.7</ele>
        <time>2016-01-15T14:45:04Z</time>
      </trkpt>
      <trkpt lat="44.59528" lon="-1.13139">
        <ele>-49.03</ele>
        <time>2016-01-15T14:45:11Z</time>
      </trkpt>
      <trkpt lat="44.59511" lon="-1.13165">
        <ele>-49.16</ele>
        <time>2016-01-15T14:45:17Z</time>
      </trkpt>
      <trkpt lat="44.59497" lon="-1.13196">
        <ele>-49.46</ele>
        <time>2016-01-15T14:45:22Z</time>
      </trkpt>
      <trkpt lat="44.5949" lon="-1.13208">
        <ele>-49.12</ele>
        <time>2016-01-15T14:45:24Z</time>
      </trkpt>
      <trkpt lat="44.59484" lon="-1.13235">
        <ele>-49.07</ele>
        <time>2016-01-15T14:45:28Z</time>
      </trkpt>
      <trkpt lat="44.59471" lon="-1.13267">
        <ele>-48.98</ele>
        <time>2016-01-15T14:45:33Z</time>
      </trkpt>
      <trkpt lat="44.5945" lon="-1.13287">
        <ele>-48.78</ele>
        <time>2016-01-15T14:45:38Z</time>
      </trkpt>
      <trkpt lat="44.5943" lon="-1.13313">
        <ele>-49.16</ele>
        <time>2016-01-15T14:45:45Z</time>
      </trkpt>
      <trkpt lat="44.59403" lon="-1.13378">
        <ele>-49</ele>
        <time>2016-01-15T14:45:58Z</time>
      </trkpt>
      <trkpt lat="44.59392" lon="-1.13391">
        <ele>-49.09</ele>
        <time>2016-01-15T14:46:01Z</time>
      </trkpt>
      <trkpt lat="44.59384" lon="-1.13398">
        <ele>-49.06</ele>
        <time>2016-01-15T14:46:03Z</time>
      </trkpt>
      <trkpt lat="44.59359" lon="-1.13415">
        <ele>-48.63</ele>
        <time>2016-01-15T14:46:09Z</time>
      </trkpt>
      <trkpt lat="44.59346" lon="-1.13422">
        <ele>-48.51</ele>
        <time>2016-01-15T14:46:12Z</time>
      </trkpt>
      <trkpt lat="44.59328" lon="-1.13443">
        <ele>-48.38</ele>
        <time>2016-01-15T14:46:17Z</time>
      </trkpt>
      <trkpt lat="44.59323" lon="-1.13476">
        <ele>-47</ele>
        <time>2016-01-15T14:46:25Z</time>
      </trkpt>
      <trkpt lat="44.59328" lon="-1.13562">
        <ele>-45.8</ele>
        <time>2016-01-15T14:46:41Z</time>
      </trkpt>
      <trkpt lat="44.59329" lon="-1.13569">
        <ele>-45.96</ele>
        <time>2016-01-15T14:46:42Z</time>
      </trkpt>
      <trkpt lat="44.5933" lon="-1.1364">
        <ele>-46.67</ele>
        <time>2016-01-15T14:46:51Z</time>
      </trkpt>
      <trkpt lat="44.59349" lon="-1.13677">
        <ele>-47.15</ele>
        <time>2016-01-15T14:46:57Z</time>
      </trkpt>
      <trkpt lat="44.59404" lon="-1.13755">
        <ele>-47</ele>
        <time>2016-01-15T14:47:10Z</time>
      </trkpt>
      <trkpt lat="44.5945" lon="-1.13809">
        <ele>-47.05</ele>
        <time>2016-01-15T14:47:24Z</time>
      </trkpt>
      <trkpt lat="44.59459" lon="-1.13847">
        <ele>-47.12</ele>
        <time>2016-01-15T14:47:34Z</time>
      </trkpt>
      <trkpt lat="44.59457" lon="-1.13874">
        <ele>-46.61</ele>
        <time>2016-01-15T14:47:47Z</time>
      </trkpt>
      <trkpt lat="44.59458" lon="-1.13943">
        <ele>-46.04</ele>
        <time>2016-01-15T14:47:59Z</time>
      </trkpt>
      <trkpt lat="44.59456" lon="-1.13995">
        <ele>-45.42</ele>
        <time>2016-01-15T14:48:07Z</time>
      </trkpt>
      <trkpt lat="44.59422" lon="-1.14096">
        <ele>-45.95</ele>
        <time>2016-01-15T14:48:21Z</time>
      </trkpt>
      <trkpt lat="44.59413" lon="-1.14147">
        <ele>-45.59</ele>
        <time>2016-01-15T14:48:28Z</time>
      </trkpt>
      <trkpt lat="44.59409" lon="-1.14163">
        <ele>-45.49</ele>
        <time>2016-01-15T14:48:30Z</time>
      </trkpt>
      <trkpt lat="44.59392" lon="-1.14251">
        <ele>-45.83</ele>
        <time>2016-01-15T14:48:42Z</time>
      </trkpt>
      <trkpt lat="44.59378" lon="-1.14339">
        <ele>-44.58</ele>
        <time>2016-01-15T14:48:54Z</time>
      </trkpt>
      <trkpt lat="44.59372" lon="-1.14381">
        <ele>-44.87</ele>
        <time>2016-01-15T14:49:00Z</time>
      </trkpt>
      <trkpt lat="44.59368" lon="-1.14424">
        <ele>-44.65</ele>
        <time>2016-01-15T14:49:06Z</time>
      </trkpt>
      <trkpt lat="44.59364" lon="-1.14438">
        <ele>-44.5</ele>
        <time>2016-01-15T14:49:08Z</time>
      </trkpt>
      <trkpt lat="44.59355" lon="-1.145">
        <ele>-44.46</ele>
        <time>2016-01-15T14:49:17Z</time>
      </trkpt>
      <trkpt lat="44.59353" lon="-1.14599">
        <ele>-44.68</ele>
        <time>2016-01-15T14:49:30Z</time>
      </trkpt>
      <trkpt lat="44.59354" lon="-1.14628">
        <ele>-44.18</ele>
        <time>2016-01-15T14:49:34Z</time>
      </trkpt>
      <trkpt lat="44.59354" lon="-1.14652">
        <ele>-43.3</ele>
        <time>2016-01-15T14:49:38Z</time>
      </trkpt>
      <trkpt lat="44.59367" lon="-1.14725">
        <ele>-42.73</ele>
        <time>2016-01-15T14:49:51Z</time>
      </trkpt>
      <trkpt lat="44.59394" lon="-1.14757">
        <ele>-43.62</ele>
        <time>2016-01-15T14:49:59Z</time>
      </trkpt>
      <trkpt lat="44.59424" lon="-1.14809">
        <ele>-44.05</ele>
        <time>2016-01-15T14:50:07Z</time>
      </trkpt>
      <trkpt lat="44.59473" lon="-1.14877">
        <ele>-43.26</ele>
        <time>2016-01-15T14:50:21Z</time>
      </trkpt>
      <trkpt lat="44.59475" lon="-1.14882">
        <ele>-43.17</ele>
        <time>2016-01-15T14:50:22Z</time>
      </trkpt>
      <trkpt lat="44.59479" lon="-1.14893">
        <ele>-43.2</ele>
        <time>2016-01-15T14:50:24Z</time>
      </trkpt>
      <trkpt lat="44.5949" lon="-1.14916">
        <ele>-43.21</ele>
        <time>2016-01-15T14:50:28Z</time>
      </trkpt>
      <trkpt lat="44.5952" lon="-1.14986">
        <ele>-42.11</ele>
        <time>2016-01-15T14:50:42Z</time>
      </trkpt>
      <trkpt lat="44.59531" lon="-1.15048">
        <ele>-40.78</ele>
        <time>2016-01-15T14:50:54Z</time>
      </trkpt>
      <trkpt lat="44.59532" lon="-1.15109">
        <ele>-39.98</ele>
        <time>2016-01-15T14:51:06Z</time>
      </trkpt>
      <trkpt lat="44.59542" lon="-1.15193">
        <ele>-41.06</ele>
        <time>2016-01-15T14:51:18Z</time>
      </trkpt>
      <trkpt lat="44.59547" lon="-1.15237">
        <ele>-41.26</ele>
        <time>2016-01-15T14:51:24Z</time>
      </trkpt>
      <trkpt lat="44.59547" lon="-1.15309">
        <ele>-41.96</ele>
        <time>2016-01-15T14:51:37Z</time>
      </trkpt>
      <trkpt lat="44.59561" lon="-1.15303">
        <ele>-41.1</ele>
        <time>2016-01-15T14:51:42Z</time>
      </trkpt>
      <trkpt lat="44.59595" lon="-1.15265">
        <ele>-37.59</ele>
        <time>2016-01-15T14:51:56Z</time>
      </trkpt>
      <trkpt lat="44.59632" lon="-1.15229">
        <ele>-34.82</ele>
        <time>2016-01-15T14:52:10Z</time>
      </trkpt>
      <trkpt lat="44.59675" lon="-1.15198">
        <ele>-34.12</ele>
        <time>2016-01-15T14:52:23Z</time>
      </trkpt>
      <trkpt lat="44.59715" lon="-1.15161">
        <ele>-36.98</ele>
        <time>2016-01-15T14:52:31Z</time>
      </trkpt>
      <trkpt lat="44.5974" lon="-1.15117">
        <ele>-41.48</ele>
        <time>2016-01-15T14:52:36Z</time>
      </trkpt>
      <trkpt lat="44.59793" lon="-1.15008">
        <ele>-43.41</ele>
        <time>2016-01-15T14:52:49Z</time>
      </trkpt>
      <trkpt lat="44.59812" lon="-1.14944">
        <ele>-44</ele>
        <time>2016-01-15T14:52:58Z</time>
      </trkpt>
      <trkpt lat="44.59821" lon="-1.14922">
        <ele>-44.04</ele>
        <time>2016-01-15T14:53:01Z</time>
      </trkpt>
      <trkpt lat="44.59839" lon="-1.14894">
        <ele>-43.69</ele>
        <time>2016-01-15T14:53:06Z</time>
      </trkpt>
      <trkpt lat="44.5985" lon="-1.14868">
        <ele>-43.65</ele>
        <time>2016-01-15T14:53:10Z</time>
      </trkpt>
      <trkpt lat="44.59855" lon="-1.14855">
        <ele>-43.75</ele>
        <time>2016-01-15T14:53:12Z</time>
      </trkpt>
      <trkpt lat="44.59869" lon="-1.14837">
        <ele>-43.59</ele>
        <time>2016-01-15T14:53:16Z</time>
      </trkpt>
      <trkpt lat="44.59876" lon="-1.14828">
        <ele>-43.46</ele>
        <time>2016-01-15T14:53:18Z</time>
      </trkpt>
      <trkpt lat="44.59905" lon="-1.14767">
        <ele>-42.98</ele>
        <time>2016-01-15T14:53:31Z</time>
      </trkpt>
      <trkpt lat="44.59905" lon="-1.14767">
        <ele>-42.92</ele>
        <time>2016-01-15T14:53:32Z</time>
      </trkpt>
      <trkpt lat="44.59909" lon="-1.14762">
        <ele>-42.66</ele>
        <time>2016-01-15T14:53:36Z</time>
      </trkpt>
      <trkpt lat="44.59921" lon="-1.14745">
        <ele>-42.61</ele>
        <time>2016-01-15T14:53:49Z</time>
      </trkpt>
      <trkpt lat="44.59946" lon="-1.1476">
        <ele>-40.17</ele>
        <time>2016-01-15T14:54:02Z</time>
      </trkpt>
      <trkpt lat="44.5997" lon="-1.14774">
        <ele>-38.12</ele>
        <time>2016-01-15T14:54:13Z</time>
      </trkpt>
      <trkpt lat="44.6" lon="-1.14802">
        <ele>-35.73</ele>
        <time>2016-01-15T14:54:27Z</time>
      </trkpt>
      <trkpt lat="44.60035" lon="-1.14815">
        <ele>-32.79</ele>
        <time>2016-01-15T14:54:42Z</time>
      </trkpt>
      <trkpt lat="44.60064" lon="-1.14827">
        <ele>-30.76</ele>
        <time>2016-01-15T14:54:54Z</time>
      </trkpt>
      <trkpt lat="44.60095" lon="-1.14823">
        <ele>-29.4</ele>
        <time>2016-01-15T14:55:06Z</time>
      </trkpt>
      <trkpt lat="44.60134" lon="-1.14793">
        <ele>-27.48</ele>
        <time>2016-01-15T14:55:20Z</time>
      </trkpt>
      <trkpt lat="44.60163" lon="-1.14758">
        <ele>-26.81</ele>
        <time>2016-01-15T14:55:32Z</time>
      </trkpt>
      <trkpt lat="44.60203" lon="-1.14732">
        <ele>-25.9</ele>
        <time>2016-01-15T14:55:44Z</time>
      </trkpt>
      <trkpt lat="44.60211" lon="-1.14727">
        <ele>-26.32</ele>
        <time>2016-01-15T14:55:46Z</time>
      </trkpt>
      <trkpt lat="44.60249" lon="-1.14692">
        <ele>-26.71</ele>
        <time>2016-01-15T14:55:59Z</time>
      </trkpt>
      <trkpt lat="44.60253" lon="-1.14692">
        <ele>-26.47</ele>
        <time>2016-01-15T14:56:05Z</time>
      </trkpt>
      <trkpt lat="44.60259" lon="-1.14707">
        <ele>-27.5</ele>
        <time>2016-01-15T14:56:10Z</time>
      </trkpt>
      <trkpt lat="44.60272" lon="-1.14738">
        <ele>-29.79</ele>
        <time>2016-01-15T14:56:16Z</time>
      </trkpt>
      <trkpt lat="44.60283" lon="-1.14755">
        <ele>-31.37</ele>
        <time>2016-01-15T14:56:19Z</time>
      </trkpt>
      <trkpt lat="44.60304" lon="-1.14774">
        <ele>-34.65</ele>
        <time>2016-01-15T14:56:23Z</time>
      </trkpt>
      <trkpt lat="44.60326" lon="-1.14785">
        <ele>-37.34</ele>
        <time>2016-01-15T14:56:26Z</time>
      </trkpt>
      <trkpt lat="44.60353" lon="-1.14809">
        <ele>-41.16</ele>
        <time>2016-01-15T14:56:30Z</time>
      </trkpt>
      <trkpt lat="44.6038" lon="-1.14811">
        <ele>-44.19</ele>
        <time>2016-01-15T14:56:34Z</time>
      </trkpt>
      <trkpt lat="44.60392" lon="-1.14801">
        <ele>-44.29</ele>
        <time>2016-01-15T14:56:36Z</time>
      </trkpt>
      <trkpt lat="44.60417" lon="-1.14777">
        <ele>-44.87</ele>
        <time>2016-01-15T14:56:41Z</time>
      </trkpt>
      <trkpt lat="44.6049" lon="-1.14724">
        <ele>-45.32</ele>
        <time>2016-01-15T14:56:54Z</time>
      </trkpt>
      <trkpt lat="44.60509" lon="-1.14711">
        <ele>-45.29</ele>
        <time>2016-01-15T14:56:58Z</time>
      </trkpt>
      <trkpt lat="44.60523" lon="-1.14701">
        <ele>-45.26</ele>
        <time>2016-01-15T14:57:01Z</time>
      </trkpt>
      <trkpt lat="44.60587" lon="-1.14645">
        <ele>-45.89</ele>
        <time>2016-01-15T14:57:14Z</time>
      </trkpt>
      <trkpt lat="44.60597" lon="-1.14637">
        <ele>-46.06</ele>
        <time>2016-01-15T14:57:16Z</time>
      </trkpt>
      <trkpt lat="44.60651" lon="-1.14598">
        <ele>-45.8</ele>
        <time>2016-01-15T14:57:26Z</time>
      </trkpt>
      <trkpt lat="44.60674" lon="-1.14587">
        <ele>-45.85</ele>
        <time>2016-01-15T14:57:33Z</time>
      </trkpt>
      <trkpt lat="44.60708" lon="-1.14617">
        <ele>-46.05</ele>
        <time>2016-01-15T14:57:47Z</time>
      </trkpt>
      <trkpt lat="44.60731" lon="-1.14647">
        <ele>-46.15</ele>
        <time>2016-01-15T14:57:56Z</time>
      </trkpt>
      <trkpt lat="44.60743" lon="-1.14659">
        <ele>-46.24</ele>
        <time>2016-01-15T14:58:00Z</time>
      </trkpt>
      <trkpt lat="44.60755" lon="-1.14668">
        <ele>-46.03</ele>
        <time>2016-01-15T14:58:05Z</time>
      </trkpt>
      <trkpt lat="44.6079" lon="-1.14662">
        <ele>-43.97</ele>
        <time>2016-01-15T14:58:16Z</time>
      </trkpt>
      <trkpt lat="44.60839" lon="-1.14677">
        <ele>-41.77</ele>
        <time>2016-01-15T14:58:30Z</time>
      </trkpt>
      <trkpt lat="44.60842" lon="-1.14678">
        <ele>-41.77</ele>
        <time>2016-01-15T14:58:31Z</time>
      </trkpt>
      <trkpt lat="44.6086" lon="-1.14673">
        <ele>-41.22</ele>
        <time>2016-01-15T14:58:43Z</time>
      </trkpt>
      <trkpt lat="44.60865" lon="-1.14669">
        <ele>-41.14</ele>
        <time>2016-01-15T14:58:53Z</time>
      </trkpt>
      <trkpt lat="44.60871" lon="-1.1466">
        <ele>-40.98</ele>
        <time>2016-01-15T14:58:56Z</time>
      </trkpt>
      <trkpt lat="44.60885" lon="-1.14665">
        <ele>-40.67</ele>
        <time>2016-01-15T14:59:00Z</time>
      </trkpt>
      <trkpt lat="44.60914" lon="-1.14691">
        <ele>-41.18</ele>
        <time>2016-01-15T14:59:08Z</time>
      </trkpt>
      <trkpt lat="44.6094" lon="-1.14688">
        <ele>-42.52</ele>
        <time>2016-01-15T14:59:13Z</time>
      </trkpt>
      <trkpt lat="44.61009" lon="-1.14669">
        <ele>-45.14</ele>
        <time>2016-01-15T14:59:26Z</time>
      </trkpt>
      <trkpt lat="44.61037" lon="-1.14675">
        <ele>-47.46</ele>
        <time>2016-01-15T14:59:35Z</time>
      </trkpt>
      <trkpt lat="44.61039" lon="-1.14674">
        <ele>-46.82</ele>
        <time>2016-01-15T14:59:41Z</time>
      </trkpt>
    </trkseg>
  </trk>
</gpx>